Observation data for Estelline on 05/16/2018      Previous  Date  Next       Current Mesonet Observations  Soil Data  Daily Summary Page  Observations in Plain Language
KES1 160500Z 15017G22KT 22/11 A2984 RMK A01 T02240112  RH  049%=      5-min Rain = 0
KES1 160501Z 14016KT 23/11 A2984 RMK A01 T02250112  RH  049%=      5-min Rain = 0
KES1 160502Z 14017G22KT 23/11 A2984 RMK A01 T02250111  RH  048%=      5-min Rain = 0
KES1 160503Z 14016G21KT 23/11 A2984 RMK A01 T02260111  RH  048%=      5-min Rain = 0
KES1 160504Z 15016G21KT 23/11 A2984 RMK A01 T02270113  RH  049%=      5-min Rain = 0
KES1 160505Z 15015G21KT 23/11 A2985 RMK A01 T02270112  RH  048%=      5-min Rain = 0
KES1 160506Z 15014KT 23/11 A2985 RMK A01 T02260114  RH  049%=      5-min Rain = 0
KES1 160507Z 15014KT 23/12 A2985 RMK A01 T02250115  RH  050%=      5-min Rain = 0
KES1 160508Z 16014KT 22/12 A2985 RMK A01 T02240116  RH  050%=      5-min Rain = 0
KES1 160509Z 15012KT 22/12 A2985 RMK A01 T02230115  RH  050%=      5-min Rain = 0
KES1 160510Z 14009KT 22/12 A2986 RMK A01 T02220116  RH  051%=      5-min Rain = 0
KES1 160511Z 14008KT 22/12 A2986 RMK A01 T02220118  RH  052%=      5-min Rain = 0
KES1 160512Z 13005KT 22/12 A2987 RMK A01 T02210118  RH  052%=      5-min Rain = 0
KES1 160513Z 06003KT 22/12 A2987 RMK A01 T02200118  RH  052%=      5-min Rain = 0
KES1 160514Z 00008KT 22/13 A2988 RMK A01 T02190127  RH  056%=      5-min Rain = 0
KES1 160515Z 35010KT 22/13 A2988 RMK A01 T02160130  RH  058%=      5-min Rain = 0
KES1 160516Z 33009KT 21/13 A2988 RMK A01 T02110133  RH  061%=      5-min Rain = 0
KES1 160517Z 31009KT 21/14 A2988 RMK A01 T02080136  RH  063%=      5-min Rain = 0
KES1 160518Z 32005KT 21/14 A2988 RMK A01 T02060136  RH  064%=      5-min Rain = 0
KES1 160519Z 30003KT 21/14 A2987 RMK A01 T02050136  RH  064%=      5-min Rain = 0
KES1 160520Z 29003KT 20/14 A2988 RMK A01 T02040135  RH  064%=      5-min Rain = 0
KES1 160521Z 28004KT 20/13 A2988 RMK A01 T02030134  RH  064%=      5-min Rain = 0
KES1 160522Z 29005KT 20/14 A2988 RMK A01 T02030136  RH  066%=      5-min Rain = 0
KES1 160523Z 32007KT 20/14 A2988 RMK A01 T02020136  RH  066%=      5-min Rain = 0
KES1 160524Z 33009KT 20/14 A2989 RMK A01 T02010137  RH  067%=      5-min Rain = 0
KES1 160525Z 31009KT 20/14 A2989 RMK A01 T02010140  RH  068%=      5-min Rain = 0
KES1 160526Z 31007KT 20/14 A2989 RMK A01 T02010140  RH  068%=      5-min Rain = 0
KES1 160527Z 31004KT 20/14 A2989 RMK A01 T02010138  RH  067%=      5-min Rain = 0
KES1 160528Z 29004KT 20/14 A2989 RMK A01 T02010138  RH  067%=      5-min Rain = 0
KES1 160529Z 24006KT 20/14 A2989 RMK A01 T02010140  RH  068%=      5-min Rain = 0
KES1 160530Z 23008KT 20/14 A299 RMK A01 T01990141  RH  069%=      5-min Rain = 0
KES1 160531Z 24008KT 20/14 A299 RMK A01 T01980141  RH  070%=      5-min Rain = 0
KES1 160532Z 25007KT 20/14 A299 RMK A01 T01970139  RH  069%=      5-min Rain = 0
KES1 160533Z 25008KT 20/14 A299 RMK A01 T01970139  RH  069%=      5-min Rain = 0
KES1 160534Z 24009KT 20/14 A2991 RMK A01 T01970139  RH  069%=      5-min Rain = 0
KES1 160535Z 25009KT 20/14 A2991 RMK A01 T01960140  RH  070%=      5-min Rain = 0
KES1 160536Z 25009KT 20/14 A2991 RMK A01 T01960140  RH  070%=      5-min Rain = 0
KES1 160537Z 26009KT 20/14 A2991 RMK A01 T01950140  RH  070%=      5-min Rain = 0
KES1 160538Z 26009KT 20/14 A299 RMK A01 T01950139  RH  070%=      5-min Rain = 0
KES1 160539Z 26008KT 20/14 A299 RMK A01 T01950140  RH  070%=      5-min Rain = 0
KES1 160540Z 26008KT 20/14 A2991 RMK A01 T01950140  RH  071%=      5-min Rain = 0
KES1 160541Z 25010KT 19/14 A2991 RMK A01 T01940140  RH  071%=      5-min Rain = 0
KES1 160542Z 26009KT 19/14 A2991 RMK A01 T01940139  RH  070%=      5-min Rain = 0
KES1 160543Z 26009KT 19/14 A2991 RMK A01 T01940138  RH  070%=      5-min Rain = 0
KES1 160544Z 26011KT 19/14 A2991 RMK A01 T01940139  RH  070%=      5-min Rain = 0
KES1 160545Z 27012KT 19/14 A2991 RMK A01 T01940136  RH  069%=      5-min Rain = 0
KES1 160546Z 27012KT 20/14 A2991 RMK A01 T01960136  RH  068%=      5-min Rain = 0
KES1 160547Z 26013G18KT 20/13 A2991 RMK A01 T01970134  RH  067%=      5-min Rain = 0
KES1 160548Z 26011G16KT 20/13 A2991 RMK A01 T01970134  RH  067%=      5-min Rain = 0
KES1 160549Z 26014KT 20/14 A2991 RMK A01 T01970135  RH  067%=      5-min Rain = 0
KES1 160550Z 26013KT 20/14 A2991 RMK A01 T01980135  RH  067%=      5-min Rain = 0
KES1 160551Z 26013KT 20/14 A2992 RMK A01 T01970136  RH  068%=      5-min Rain = 0
KES1 160552Z 27014KT 20/14 A2992 RMK A01 T01960137  RH  069%=      5-min Rain = 0
KES1 160553Z 26015KT 20/14 A2993 RMK A01 T01950138  RH  069%=      5-min Rain = 0
KES1 160554Z 27016KT 20/14 A2993 RMK A01 T01950138  RH  070%=      5-min Rain = 0
KES1 160555Z 27015G20KT 19/14 A2993 RMK A01 T01940138  RH  070%=      5-min Rain = 0
KES1 160556Z 26014KT 19/14 A2993 RMK A01 T01940139  RH  070%=      5-min Rain = 0
KES1 160557Z 27012KT 19/14 A2993 RMK A01 T01940139  RH  071%=      5-min Rain = 0
KES1 160558Z 27012KT 19/14 A2993 RMK A01 T01930141  RH  072%=      5-min Rain = 0
KES1 160559Z 26011KT 19/14 A2993 RMK A01 T01920142  RH  073%=      5-min Rain = 0
KES1 160600Z 26012KT 19/14 A2993 RMK A01 T01910143  RH  073%=      5-min Rain = 0
KES1 160601Z 26012KT 19/14 A2993 RMK A01 T01900143  RH  074%=      5-min Rain = 0
KES1 160602Z 26013KT 19/14 A2993 RMK A01 T01900144  RH  075%=      5-min Rain = 0
KES1 160603Z 27011KT 19/15 A2993 RMK A01 T01890145  RH  075%=      5-min Rain = 0
KES1 160604Z 27011KT 19/15 A2993 RMK A01 T01890145  RH  076%=      5-min Rain = 0
KES1 160605Z 28010KT 19/15 A2993 RMK A01 T01880145  RH  076%=      5-min Rain = 0
KES1 160606Z 27012KT 19/15 A2993 RMK A01 T01880146  RH  076%=      5-min Rain = 0
KES1 160607Z 27010KT 19/15 A2993 RMK A01 T01880146  RH  077%=      5-min Rain = 0
KES1 160608Z 26009KT 19/15 A2993 RMK A01 T01880146  RH  077%=      5-min Rain = 0
KES1 160609Z 26010KT 19/15 A2993 RMK A01 T01880147  RH  077%=      5-min Rain = 0
KES1 160610Z 26011KT 19/15 A2993 RMK A01 T01880147  RH  077%=      5-min Rain = 0
KES1 160611Z 26010KT 19/15 A2993 RMK A01 T01870147  RH  077%=      5-min Rain = 0
KES1 160612Z 26009KT 19/15 A2993 RMK A01 T01880147  RH  077%=      5-min Rain = 0
KES1 160613Z 27011KT 19/15 A2994 RMK A01 T01880147  RH  077%=      5-min Rain = 0
KES1 160614Z 27008KT 19/15 A2994 RMK A01 T01880147  RH  077%=      5-min Rain = 0
KES1 160615Z 27009KT 19/15 A2994 RMK A01 T01880148  RH  078%=      5-min Rain = 0
KES1 160616Z 27009KT 19/15 A2995 RMK A01 T01880149  RH  078%=      5-min Rain = 0
KES1 160617Z 27010KT 19/15 A2996 RMK A01 T01880148  RH  078%=      5-min Rain = 0
KES1 160618Z 27009KT 19/15 A2996 RMK A01 T01880147  RH  077%=      5-min Rain = 0
KES1 160619Z 26010KT 19/15 A2997 RMK A01 T01880146  RH  076%=      5-min Rain = 0
KES1 160620Z 27009KT 19/14 A2997 RMK A01 T01890144  RH  075%=      5-min Rain = 0
KES1 160621Z 28007KT 19/14 A2996 RMK A01 T01900144  RH  075%=      5-min Rain = 0
KES1 160622Z 29009KT 19/15 A2996 RMK A01 T01900147  RH  076%=      5-min Rain = 0
KES1 160623Z 28010KT 19/15 A2997 RMK A01 T01900149  RH  077%=      5-min Rain = 0
KES1 160624Z 28009KT 19/15 A2997 RMK A01 T01890150  RH  078%=      5-min Rain = 0
KES1 160625Z 28009KT 19/15 A2997 RMK A01 T01880150  RH  079%=      5-min Rain = 0
KES1 160626Z 28007KT 19/15 A2997 RMK A01 T01880150  RH  079%=      5-min Rain = 0
KES1 160627Z 29008KT 19/15 A2998 RMK A01 T01880151  RH  079%=      5-min Rain = 0
KES1 160628Z 29009KT 19/15 A2998 RMK A01 T01870148  RH  078%=      5-min Rain = 0
KES1 160629Z 30009KT 19/15 A2998 RMK A01 T01880149  RH  078%=      5-min Rain = 0
KES1 160630Z 31009KT 19/15 A2999 RMK A01 T01890149  RH  078%=      5-min Rain = 0
KES1 160631Z 32009KT 19/15 A2999 RMK A01 T01890150  RH  078%=      5-min Rain = 0
KES1 160632Z 32008KT 19/15 A2999 RMK A01 T01890150  RH  078%=      5-min Rain = 0
KES1 160633Z 33009KT 19/15 A30 RMK A01 T01890150  RH  078%=      5-min Rain = 0
KES1 160634Z 34009KT 19/15 A30 RMK A01 T01890150  RH  078%=      5-min Rain = 0
KES1 160635Z 34007KT 19/15 A30 RMK A01 T01890151  RH  078%=      5-min Rain = 0
KES1 160636Z 34006KT 19/15 A30 RMK A01 T01890152  RH  079%=      5-min Rain = 0
KES1 160637Z 32006KT 19/15 A30 RMK A01 T01890152  RH  079%=      5-min Rain = 0
KES1 160638Z 30006KT 19/15 A30 RMK A01 T01890152  RH  079%=      5-min Rain = 0
KES1 160639Z 29007KT 19/15 A30 RMK A01 T01890151  RH  079%=      5-min Rain = 0
KES1 160640Z 29005KT 19/15 A30 RMK A01 T01880150  RH  078%=      5-min Rain = 0
KES1 160641Z 28005KT 19/15 A30 RMK A01 T01880150  RH  078%=      5-min Rain = 0
KES1 160642Z 29005KT 19/15 A30 RMK A01 T01880150  RH  078%=      5-min Rain = 0
KES1 160643Z 30006KT 19/15 A2999 RMK A01 T01880150  RH  079%=      5-min Rain = 0
KES1 160644Z 31006KT 19/15 A2999 RMK A01 T01880151  RH  079%=      5-min Rain = 0
KES1 160645Z 31006KT 19/15 A2999 RMK A01 T01870152  RH  080%=      5-min Rain = 0
KES1 160646Z 31005KT 19/15 A30 RMK A01 T01870152  RH  080%=      5-min Rain = 0
KES1 160647Z 30006KT 19/15 A30 RMK A01 T01860154  RH  082%=      5-min Rain = 0
KES1 160648Z 30006KT 19/15 A30 RMK A01 T01850154  RH  082%=      5-min Rain = 0
KES1 160649Z 29006KT 19/15 A30 RMK A01 T01850153  RH  081%=      5-min Rain = 0
KES1 160650Z 29005KT 19/15 A2999 RMK A01 T01850152  RH  081%=      5-min Rain = 0
KES1 160651Z 29005KT 19/15 A2999 RMK A01 T01850149  RH  079%=      5-min Rain = 0
KES1 160652Z 27005KT 19/15 A2999 RMK A01 T01850150  RH  080%=      5-min Rain = 0
KES1 160653Z 26005KT 19/15 A2999 RMK A01 T01850150  RH  080%=      5-min Rain = 0
KES1 160654Z 26006KT 18/15 A2998 RMK A01 T01840150  RH  081%=      5-min Rain = 0
KES1 160655Z 25007KT 18/15 A2998 RMK A01 T01830148  RH  080%=      5-min Rain = 0
KES1 160656Z 25007KT 18/15 A2998 RMK A01 T01840148  RH  079%=      5-min Rain = 0
KES1 160657Z 25008KT 18/15 A2998 RMK A01 T01840147  RH  079%=      5-min Rain = 0
KES1 160658Z 24008KT 19/15 A2998 RMK A01 T01850146  RH  078%=      5-min Rain = 0
KES1 160659Z 25007KT 19/15 A2998 RMK A01 T01860146  RH  077%=      5-min Rain = 0
KES1 160700Z 25007KT 19/15 A2998 RMK A01 T01870146  RH  077%=      5-min Rain = 0
KES1 160701Z 26006KT 19/15 A2999 RMK A01 T01870147  RH  077%=      5-min Rain = 0
KES1 160702Z 26007KT 19/15 A2999 RMK A01 T01870147  RH  077%=      5-min Rain = 0
KES1 160703Z 27006KT 19/15 A2999 RMK A01 T01870148  RH  078%=      5-min Rain = 0
KES1 160704Z 28007KT 19/15 A30 RMK A01 T01860148  RH  079%=      5-min Rain = 0
KES1 160705Z 30008KT 19/15 A30 RMK A01 T01860149  RH  079%=      5-min Rain = 0
KES1 160706Z 31008KT 19/15 A3001 RMK A01 T01850150  RH  080%=      5-min Rain = 0
KES1 160707Z 31008KT 19/15 A3001 RMK A01 T01850152  RH  081%=      5-min Rain = 0
KES1 160708Z 30008KT 18/15 A3001 RMK A01 T01840152  RH  082%=      5-min Rain = 0
KES1 160709Z 31008KT 18/15 A3001 RMK A01 T01830152  RH  082%=      5-min Rain = 0
KES1 160710Z 31008KT 18/15 A3001 RMK A01 T01830152  RH  082%=      5-min Rain = 0
KES1 160711Z 31008KT 18/15 A3001 RMK A01 T01830151  RH  082%=      5-min Rain = 0
KES1 160712Z 31008KT 18/15 A30 RMK A01 T01830152  RH  082%=      5-min Rain = 0
KES1 160713Z 30008KT 18/15 A30 RMK A01 T01830152  RH  082%=      5-min Rain = 0
KES1 160714Z 29007KT 18/15 A30 RMK A01 T01830151  RH  082%=      5-min Rain = 0
KES1 160715Z 29006KT 18/15 A30 RMK A01 T01830151  RH  082%=      5-min Rain = 0
KES1 160716Z 29006KT 18/15 A30 RMK A01 T01830152  RH  082%=      5-min Rain = 0
KES1 160717Z 29005KT 18/15 A2999 RMK A01 T01830152  RH  082%=      5-min Rain = 0
KES1 160718Z 29007KT 18/15 A2999 RMK A01 T01830151  RH  081%=      5-min Rain = 0
KES1 160719Z 30005KT 18/15 A30 RMK A01 T01830150  RH  081%=      5-min Rain = 0
KES1 160720Z 30004KT 18/15 A30 RMK A01 T01830151  RH  081%=      5-min Rain = 0
KES1 160721Z 29005KT 18/15 A30 RMK A01 T01840151  RH  081%=      5-min Rain = 0
KES1 160722Z 30005KT 18/15 A3001 RMK A01 T01840151  RH  081%=      5-min Rain = 0
KES1 160723Z 30004KT 18/15 A3001 RMK A01 T01830151  RH  081%=      5-min Rain = 0
KES1 160724Z 30005KT 18/15 A3001 RMK A01 T01840152  RH  082%=      5-min Rain = 0
KES1 160725Z 30005KT 18/15 A3001 RMK A01 T01830151  RH  082%=      5-min Rain = 0
KES1 160726Z 29004KT 18/15 A30 RMK A01 T01830152  RH  082%=      5-min Rain = 0
KES1 160727Z 30005KT 18/15 A30 RMK A01 T01830152  RH  082%=      5-min Rain = 0
KES1 160728Z 31005KT 18/15 A30 RMK A01 T01820151  RH  082%=      5-min Rain = 0
KES1 160729Z 31005KT 18/15 A30 RMK A01 T01830152  RH  082%=      5-min Rain = 0
KES1 160730Z 31006KT 18/15 A30 RMK A01 T01830152  RH  082%=      5-min Rain = 0
KES1 160731Z 31006KT 18/15 A30 RMK A01 T01830152  RH  082%=      5-min Rain = 0
KES1 160732Z 32007KT 18/15 A30 RMK A01 T01820153  RH  083%=      5-min Rain = 0
KES1 160733Z 32007KT 18/15 A30 RMK A01 T01820153  RH  083%=      5-min Rain = 0
KES1 160734Z 31007KT 18/15 A30 RMK A01 T01810153  RH  084%=      5-min Rain = 0
KES1 160735Z 31007KT 18/15 A30 RMK A01 T01810154  RH  084%=      5-min Rain = 0
KES1 160736Z 31007KT 18/15 A30 RMK A01 T01800154  RH  084%=      5-min Rain = 0
KES1 160737Z 31007KT 18/15 A2999 RMK A01 T01800153  RH  084%=      5-min Rain = 0
KES1 160738Z 31007KT 18/15 A2999 RMK A01 T01800153  RH  085%=      5-min Rain = 0
KES1 160739Z 32006KT 18/15 A2999 RMK A01 T01790153  RH  085%=      5-min Rain = 0
KES1 160740Z 33006KT 18/15 A2999 RMK A01 T01790152  RH  084%=      5-min Rain = 0
KES1 160741Z 33006KT 18/15 A2999 RMK A01 T01800153  RH  084%=      5-min Rain = 0
KES1 160742Z 34006KT 18/15 A2999 RMK A01 T01800153  RH  084%=      5-min Rain = 0
KES1 160743Z 34007KT 18/15 A2999 RMK A01 T01810152  RH  083%=      5-min Rain = 0
KES1 160744Z 34007KT 18/15 A2999 RMK A01 T01810153  RH  084%=      5-min Rain = 0
KES1 160745Z 34007KT 18/15 A2999 RMK A01 T01800153  RH  084%=      5-min Rain = 0
KES1 160746Z 34007KT 18/15 A2999 RMK A01 T01800153  RH  084%=      5-min Rain = 0
KES1 160747Z 33007KT 18/15 A2999 RMK A01 T01790153  RH  085%=      5-min Rain = 0
KES1 160748Z 33006KT 18/15 A2999 RMK A01 T01790153  RH  085%=      5-min Rain = 0
KES1 160749Z 32005KT 18/15 A2999 RMK A01 T01780153  RH  085%=      5-min Rain = 0
KES1 160750Z 33005KT 18/15 A2999 RMK A01 T01780153  RH  086%=      5-min Rain = 0
KES1 160751Z 33005KT 18/15 A2999 RMK A01 T01770153  RH  086%=      5-min Rain = 0
KES1 160752Z 33005KT 18/15 A2999 RMK A01 T01770152  RH  085%=      5-min Rain = 0
KES1 160753Z 33006KT 18/15 A2999 RMK A01 T01770152  RH  085%=      5-min Rain = 0
KES1 160754Z 33006KT 18/15 A2999 RMK A01 T01770153  RH  086%=      5-min Rain = 0
KES1 160755Z 33006KT 18/15 A30 RMK A01 T01770153  RH  086%=      5-min Rain = 0
KES1 160756Z 33006KT 18/15 A30 RMK A01 T01770152  RH  086%=      5-min Rain = 0
KES1 160757Z 33007KT 18/15 A30 RMK A01 T01760152  RH  086%=      5-min Rain = 0
KES1 160758Z 34007KT 18/15 A30 RMK A01 T01760153  RH  086%=      5-min Rain = 0
KES1 160759Z 34007KT 18/15 A30 RMK A01 T01760152  RH  086%=      5-min Rain = 0
KES1 160800Z 34006KT 18/15 A30 RMK A01 T01760152  RH  086%=      5-min Rain = 0
KES1 160801Z 34006KT 18/15 A30 RMK A01 T01760152  RH  086%=      5-min Rain = 0
KES1 160802Z 33006KT 18/15 A30 RMK A01 T01760152  RH  086%=      5-min Rain = 0
KES1 160803Z 33006KT 18/15 A2999 RMK A01 T01760152  RH  086%=      5-min Rain = 0
KES1 160804Z 32006KT 18/15 A2999 RMK A01 T01750152  RH  086%=      5-min Rain = 0
KES1 160805Z 32005KT 18/15 A2999 RMK A01 T01750152  RH  086%=      5-min Rain = 0
KES1 160806Z 31006KT 18/15 A2999 RMK A01 T01750152  RH  086%=      5-min Rain = 0
KES1 160807Z 31007KT 18/15 A2999 RMK A01 T01750153  RH  087%=      5-min Rain = 0
KES1 160808Z 30006KT 18/15 A2999 RMK A01 T01750153  RH  087%=      5-min Rain = 0
KES1 160809Z 31007KT 18/15 A2999 RMK A01 T01750152  RH  086%=      5-min Rain = 0
KES1 160810Z 31006KT 18/15 A2999 RMK A01 T01750153  RH  087%=      5-min Rain = 0
KES1 160811Z 32006KT 17/15 A2999 RMK A01 T01740152  RH  087%=      5-min Rain = 0
KES1 160812Z 33005KT 17/15 A2999 RMK A01 T01740152  RH  087%=      5-min Rain = 0
KES1 160813Z 35006KT 18/15 A2999 RMK A01 T01750152  RH  086%=      5-min Rain = 0
KES1 160814Z 35007KT 18/15 A2999 RMK A01 T01760152  RH  086%=      5-min Rain = 0
KES1 160815Z 35007KT 18/15 A2999 RMK A01 T01760152  RH  086%=      5-min Rain = 0
KES1 160816Z 35008KT 18/15 A2999 RMK A01 T01750152  RH  086%=      5-min Rain = 0
KES1 160817Z 36010KT 18/15 A2999 RMK A01 T01750152  RH  086%=      5-min Rain = 0
KES1 160818Z 34010KT 18/15 A2999 RMK A01 T01750151  RH  086%=      5-min Rain = 0
KES1 160819Z 34011KT 18/15 A2999 RMK A01 T01750150  RH  085%=      5-min Rain = 0
KES1 160820Z 35011KT 18/15 A2999 RMK A01 T01760149  RH  084%=      5-min Rain = 0
KES1 160821Z 35007KT 18/15 A2999 RMK A01 T01780149  RH  083%=      5-min Rain = 0
KES1 160822Z 35007KT 18/15 A2999 RMK A01 T01780149  RH  083%=      5-min Rain = 0
KES1 160823Z 00006KT 18/15 A2999 RMK A01 T01790149  RH  083%=      5-min Rain = 0
KES1 160824Z 36006KT 18/15 A2999 RMK A01 T01790149  RH  083%=      5-min Rain = 0
KES1 160825Z 01006KT 18/15 A2999 RMK A01 T01790150  RH  083%=      5-min Rain = 0
KES1 160826Z 01006KT 18/15 A2999 RMK A01 T01790150  RH  083%=      5-min Rain = 0
KES1 160827Z 02006KT 18/15 A2999 RMK A01 T01780151  RH  084%=      5-min Rain = 0
KES1 160828Z 02005KT 18/15 A2999 RMK A01 T01780151  RH  084%=      5-min Rain = 0
KES1 160829Z 02005KT 18/15 A2999 RMK A01 T01770152  RH  085%=      5-min Rain = 0
KES1 160830Z 01006KT 18/15 A2999 RMK A01 T01770152  RH  085%=      5-min Rain = 0
KES1 160831Z 01005KT 18/15 A2999 RMK A01 T01770153  RH  086%=      5-min Rain = 0
KES1 160832Z 01004KT 18/15 A2999 RMK A01 T01780154  RH  086%=      5-min Rain = 0
KES1 160833Z 02003KT 18/15 A2999 RMK A01 T01780153  RH  085%=      5-min Rain = 0
KES1 160834Z 02004KT 18/15 A2999 RMK A01 T01780153  RH  085%=      5-min Rain = 0
KES1 160835Z 01005KT 18/15 A2999 RMK A01 T01780154  RH  085%=      5-min Rain = 0
KES1 160836Z 00006KT 18/16 A2999 RMK A01 T01780155  RH  086%=      5-min Rain = 0
KES1 160837Z 00006KT 18/16 A2999 RMK A01 T01780155  RH  086%=      5-min Rain = 0
KES1 160838Z 00007KT 18/16 A2999 RMK A01 T01780156  RH  087%=      5-min Rain = 0
KES1 160839Z 00007KT 18/16 A2999 RMK A01 T01780156  RH  087%=      5-min Rain = 0
KES1 160840Z 36006KT 18/16 A2999 RMK A01 T01790156  RH  086%=      5-min Rain = 0
KES1 160841Z 36006KT 18/16 A2999 RMK A01 T01790156  RH  086%=      5-min Rain = 0
KES1 160842Z 35004KT 18/16 A2999 RMK A01 T01800156  RH  086%=      5-min Rain = 0
KES1 160843Z 36004KT 18/16 A2999 RMK A01 T01800157  RH  086%=      5-min Rain = 0
KES1 160844Z 00003KT 18/16 A2999 RMK A01 T01800157  RH  086%=      5-min Rain = 0
KES1 160845Z 00003KT 18/16 A2998 RMK A01 T01800157  RH  086%=      5-min Rain = 0
KES1 160846Z 01004KT 18/16 A2998 RMK A01 T01800157  RH  086%=      5-min Rain = 0
KES1 160847Z 00003KT 18/16 A2998 RMK A01 T01790157  RH  087%=      5-min Rain = 0
KES1 160848Z 35003KT 18/16 A2998 RMK A01 T01790158  RH  087%=      5-min Rain = 0
KES1 160849Z 34005KT 18/16 A2998 RMK A01 T01790157  RH  087%=      5-min Rain = 0
KES1 160850Z 35005KT 18/16 A2998 RMK A01 T01780156  RH  087%=      5-min Rain = 0
KES1 160851Z 35006KT 18/16 A2998 RMK A01 T01780156  RH  087%=      5-min Rain = 0
KES1 160852Z 35006KT 18/16 A2998 RMK A01 T01780157  RH  087%=      5-min Rain = 0
KES1 160853Z 35007KT 18/16 A2999 RMK A01 T01790157  RH  087%=      5-min Rain = 0
KES1 160854Z 00008KT 18/16 A2999 RMK A01 T01780157  RH  087%=      5-min Rain = 0
KES1 160855Z 01009KT 18/16 A2999 RMK A01 T01780157  RH  087%=      5-min Rain = 0
KES1 160856Z 01008KT 18/16 A2999 RMK A01 T01780156  RH  087%=      5-min Rain = 0
KES1 160857Z 01007KT 18/16 A2999 RMK A01 T01770156  RH  087%=      5-min Rain = 0
KES1 160858Z 02006KT 18/16 A2999 RMK A01 T01770156  RH  088%=      5-min Rain = 0
KES1 160859Z 02005KT 18/16 A2998 RMK A01 T01760156  RH  088%=      5-min Rain = 0
KES1 160900Z 03004KT 18/16 A2998 RMK A01 T01760156  RH  088%=      5-min Rain = 0
KES1 160901Z 03003KT 18/16 A2998 RMK A01 T01750156  RH  088%=      5-min Rain = 0
KES1 160902Z 04004KT 18/16 A2998 RMK A01 T01750156  RH  089%=      5-min Rain = 0
KES1 160903Z 05003KT 17/16 A2998 RMK A01 T01740155  RH  089%=      5-min Rain = 0
KES1 160904Z 05002KT 17/16 A2998 RMK A01 T01740155  RH  089%=      5-min Rain = 0
KES1 160905Z 03002KT 17/16 A2998 RMK A01 T01740156  RH  089%=      5-min Rain = 0
KES1 160906Z 01002KT 17/16 A2998 RMK A01 T01740156  RH  089%=      5-min Rain = 0
KES1 160907Z 35004KT 17/16 A2998 RMK A01 T01740156  RH  089%=      5-min Rain = 0
KES1 160908Z 35005KT 17/16 A2998 RMK A01 T01740156  RH  089%=      5-min Rain = 0
KES1 160909Z 35005KT 17/16 A2998 RMK A01 T01740156  RH  089%=      5-min Rain = 0
KES1 160910Z 36005KT 18/16 A2998 RMK A01 T01750156  RH  089%=      5-min Rain = 0
KES1 160911Z 00005KT 18/16 A2998 RMK A01 T01750157  RH  089%=      5-min Rain = 0
KES1 160912Z 36005KT 18/16 A2998 RMK A01 T01750157  RH  089%=      5-min Rain = 0
KES1 160913Z 00005KT 18/16 A2998 RMK A01 T01750156  RH  089%=      5-min Rain = 0
KES1 160914Z 36005KT 18/16 A2998 RMK A01 T01750156  RH  088%=      5-min Rain = 0
KES1 160915Z 36005KT 18/16 A2998 RMK A01 T01750156  RH  088%=      5-min Rain = 0
KES1 160916Z 35003KT 18/16 A2998 RMK A01 T01750155  RH  088%=      5-min Rain = 0
KES1 160917Z 36003KT 18/16 A2998 RMK A01 T01760155  RH  087%=      5-min Rain = 0
KES1 160918Z 36003KT 18/16 A2998 RMK A01 T01770155  RH  087%=      5-min Rain = 0
KES1 160919Z 35002KT 18/16 A2998 RMK A01 T01770155  RH  087%=      5-min Rain = 0
KES1 160920Z 00001KT 18/15 A2997 RMK A01 T01770154  RH  087%=      5-min Rain = 0
KES1 160921Z 34002KT 18/16 A2997 RMK A01 T01770155  RH  087%=      5-min Rain = 0
KES1 160922Z 35003KT 18/16 A2997 RMK A01 T01770155  RH  087%=      5-min Rain = 0
KES1 160923Z 01002KT 18/15 A2997 RMK A01 T01770154  RH  087%=      5-min Rain = 0
KES1 160924Z 00003KT 18/15 A2997 RMK A01 T01770154  RH  087%=      5-min Rain = 0
KES1 160925Z 36004KT 18/16 A2997 RMK A01 T01770155  RH  087%=      5-min Rain = 0
KES1 160926Z 35004KT 18/16 A2998 RMK A01 T01770155  RH  087%=      5-min Rain = 0
KES1 160927Z 34004KT 18/16 A2998 RMK A01 T01770155  RH  087%=      5-min Rain = 0
KES1 160928Z 33004KT 18/16 A2998 RMK A01 T01770155  RH  087%=      5-min Rain = 0
KES1 160929Z 32004KT 18/16 A2998 RMK A01 T01770155  RH  087%=      5-min Rain = 0
KES1 160930Z 32004KT 18/16 A2998 RMK A01 T01760156  RH  088%=      5-min Rain = 0
KES1 160931Z 32005KT 18/16 A2998 RMK A01 T01750156  RH  088%=      5-min Rain = 0
KES1 160932Z 32004KT 18/16 A2998 RMK A01 T01750155  RH  088%=      5-min Rain = 0
KES1 160933Z 32004KT 18/16 A2998 RMK A01 T01760155  RH  088%=      5-min Rain = 0
KES1 160934Z 34004KT 18/16 A2998 RMK A01 T01760155  RH  088%=      5-min Rain = 0
KES1 160935Z 35003KT 18/16 A2998 RMK A01 T01770156  RH  087%=      5-min Rain = 0
KES1 160936Z 35003KT 18/16 A2998 RMK A01 T01770156  RH  087%=      5-min Rain = 0
KES1 160937Z 35004KT 18/16 A2998 RMK A01 T01780157  RH  088%=      5-min Rain = 0
KES1 160938Z 35004KT 18/16 A2998 RMK A01 T01770156  RH  088%=      5-min Rain = 0
KES1 160939Z 35004KT 18/16 A2998 RMK A01 T01770156  RH  088%=      5-min Rain = 0
KES1 160940Z 00004KT 18/16 A2998 RMK A01 T01770156  RH  088%=      5-min Rain = 0
KES1 160941Z 36004KT 18/16 A2998 RMK A01 T01760156  RH  088%=      5-min Rain = 0
KES1 160942Z 35003KT 18/16 A2998 RMK A01 T01760155  RH  088%=      5-min Rain = 0
KES1 160943Z 35002KT 18/16 A2998 RMK A01 T01760156  RH  088%=      5-min Rain = 0
KES1 160944Z 34002KT 18/16 A2998 RMK A01 T01760155  RH  088%=      5-min Rain = 0
KES1 160945Z 33002KT 18/16 A2998 RMK A01 T01750155  RH  088%=      5-min Rain = 0
KES1 160946Z 31002KT 18/16 A2999 RMK A01 T01750155  RH  088%=      5-min Rain = 0
KES1 160947Z 29002KT 17/16 A2999 RMK A01 T01740155  RH  088%=      5-min Rain = 0
KES1 160948Z 28002KT 17/15 A2999 RMK A01 T01730154  RH  088%=      5-min Rain = 0
KES1 160949Z 29002KT 17/15 A2999 RMK A01 T01730154  RH  089%=      5-min Rain = 0
KES1 160950Z 29002KT 17/15 A2999 RMK A01 T01720154  RH  089%=      5-min Rain = 0
KES1 160951Z 29002KT 17/15 A2999 RMK A01 T01720154  RH  089%=      5-min Rain = 0
KES1 160952Z 30003KT 17/15 A2999 RMK A01 T01720153  RH  089%=      5-min Rain = 0
KES1 160953Z 28002KT 17/15 A2999 RMK A01 T01720154  RH  089%=      5-min Rain = 0
KES1 160954Z 30003KT 17/15 A2999 RMK A01 T01730154  RH  089%=      5-min Rain = 0
KES1 160955Z 31003KT 17/15 A2999 RMK A01 T01730154  RH  089%=      5-min Rain = 0
KES1 160956Z 31003KT 17/15 A30 RMK A01 T01730154  RH  089%=      5-min Rain = 0
KES1 160957Z 31003KT 17/16 A30 RMK A01 T01730155  RH  089%=      5-min Rain = 0
KES1 160958Z 31003KT 17/16 A30 RMK A01 T01730155  RH  089%=      5-min Rain = 0
KES1 160959Z 31002KT 17/16 A30 RMK A01 T01720155  RH  090%=      5-min Rain = 0
KES1 161000Z 32001KT 17/16 A30 RMK A01 T01720155  RH  090%=      5-min Rain = 0
KES1 161001Z 02001KT 17/16 A30 RMK A01 T01710155  RH  090%=      5-min Rain = 0
KES1 161002Z 04002KT 17/15 A30 RMK A01 T01700154  RH  090%=      5-min Rain = 0
KES1 161003Z 03002KT 17/15 A30 RMK A01 T01690153  RH  091%=      5-min Rain = 0
KES1 161004Z 01003KT 17/15 A30 RMK A01 T01680153  RH  091%=      5-min Rain = 0
KES1 161005Z 36003KT 17/15 A30 RMK A01 T01690154  RH  091%=      5-min Rain = 0
KES1 161006Z 34003KT 17/15 A30 RMK A01 T01680154  RH  091%=      5-min Rain = 0
KES1 161007Z 32003KT 17/15 A30 RMK A01 T01680154  RH  091%=      5-min Rain = 0
KES1 161008Z 31002KT 17/15 A30 RMK A01 T01680154  RH  091%=      5-min Rain = 0
KES1 161009Z 30002KT 17/15 A30 RMK A01 T01670154  RH  092%=      5-min Rain = 0
KES1 161010Z 29002KT 17/15 A30 RMK A01 T01670154  RH  092%=      5-min Rain = 0
KES1 161011Z 26002KT 17/15 A30 RMK A01 T01670154  RH  092%=      5-min Rain = 0
KES1 161012Z 24002KT 17/15 A30 RMK A01 T01670154  RH  092%=      5-min Rain = 0
KES1 161013Z 24003KT 17/15 A30 RMK A01 T01670154  RH  092%=      5-min Rain = 0
KES1 161014Z 24003KT 17/15 A30 RMK A01 T01660154  RH  092%=      5-min Rain = 0
KES1 161015Z 25004KT 17/15 A3001 RMK A01 T01670154  RH  092%=      5-min Rain = 0
KES1 161016Z 25004KT 17/15 A3001 RMK A01 T01660154  RH  093%=      5-min Rain = 0
KES1 161017Z 25005KT 17/15 A3001 RMK A01 T01660154  RH  093%=      5-min Rain = 0
KES1 161018Z 25005KT 17/15 A3001 RMK A01 T01660154  RH  093%=      5-min Rain = 0
KES1 161019Z 25006KT 17/16 A3002 RMK A01 T01670155  RH  093%=      5-min Rain = 0
KES1 161020Z 24006KT 17/15 A3002 RMK A01 T01660154  RH  093%=      5-min Rain = 0
KES1 161021Z 24006KT 17/15 A3002 RMK A01 T01660154  RH  093%=      5-min Rain = 0
KES1 161022Z 24005KT 17/16 A3001 RMK A01 T01670155  RH  093%=      5-min Rain = 0
KES1 161023Z 23004KT 17/16 A3001 RMK A01 T01670155  RH  093%=      5-min Rain = 0
KES1 161024Z 23003KT 17/16 A3001 RMK A01 T01670155  RH  093%=      5-min Rain = 0
KES1 161025Z 21002KT 17/16 A3001 RMK A01 T01670155  RH  092%=      5-min Rain = 0
KES1 161026Z 21002KT 17/16 A30 RMK A01 T01670155  RH  092%=      5-min Rain = 0
KES1 161027Z 21002KT 17/16 A30 RMK A01 T01670155  RH  092%=      5-min Rain = 0
KES1 161028Z 21002KT 17/16 A30 RMK A01 T01670155  RH  092%=      5-min Rain = 0
KES1 161029Z 21002KT 17/16 A30 RMK A01 T01670155  RH  093%=      5-min Rain = 0
KES1 161030Z 20002KT 17/16 A30 RMK A01 T01670155  RH  093%=      5-min Rain = 0
KES1 161031Z 21002KT 17/16 A30 RMK A01 T01660155  RH  093%=      5-min Rain = 0
KES1 161032Z 21001KT 17/16 A30 RMK A01 T01660155  RH  093%=      5-min Rain = 0
KES1 161033Z 22001KT 17/16 A30 RMK A01 T01660155  RH  093%=      5-min Rain = 0
KES1 161034Z 22001KT 17/15 A30 RMK A01 T01650154  RH  093%=      5-min Rain = 0
KES1 161035Z 22001KT 17/16 A2999 RMK A01 T01660155  RH  093%=      5-min Rain = 0
KES1 161036Z 22000KT 17/16 A2999 RMK A01 T01660155  RH  093%=      5-min Rain = 0
KES1 161037Z 00000KT 17/16 A2999 RMK A01 T01660155  RH  093%=      5-min Rain = 0
KES1 161038Z 00000KT 17/16 A2999 RMK A01 T01660155  RH  093%=      5-min Rain = 0
KES1 161039Z 00000KT 17/16 A2999 RMK A01 T01660155  RH  093%=      5-min Rain = 0
KES1 161040Z 00000KT 17/16 A2999 RMK A01 T01660155  RH  093%=      5-min Rain = 0
KES1 161041Z 30000KT 17/16 A2999 RMK A01 T01660155  RH  093%=      5-min Rain = 0
KES1 161042Z 00000KT 17/16 A2999 RMK A01 T01660155  RH  093%=      5-min Rain = 0
KES1 161043Z 29001KT 17/15 A2999 RMK A01 T01660154  RH  093%=      5-min Rain = 0
KES1 161044Z 28001KT 17/16 A2999 RMK A01 T01670155  RH  093%=      5-min Rain = 0
KES1 161045Z 28001KT 17/15 A2999 RMK A01 T01670154  RH  092%=      5-min Rain = 0
KES1 161046Z 27001KT 17/15 A2999 RMK A01 T01670154  RH  092%=      5-min Rain = 0
KES1 161047Z 26002KT 17/15 A2999 RMK A01 T01680154  RH  092%=      5-min Rain = 0
KES1 161048Z 26002KT 17/15 A2999 RMK A01 T01680154  RH  092%=      5-min Rain = 0
KES1 161049Z 27002KT 17/15 A2999 RMK A01 T01680154  RH  092%=      5-min Rain = 0
KES1 161050Z 27002KT 17/15 A2999 RMK A01 T01670154  RH  092%=      5-min Rain = 0
KES1 161051Z 28002KT 17/16 A2999 RMK A01 T01680155  RH  092%=      5-min Rain = 0
KES1 161052Z 29002KT 17/15 A2999 RMK A01 T01670154  RH  092%=      5-min Rain = 0
KES1 161053Z 29002KT 17/15 A2999 RMK A01 T01680154  RH  091%=      5-min Rain = 0
KES1 161054Z 27002KT 17/15 A2999 RMK A01 T01690154  RH  091%=      5-min Rain = 0
KES1 161055Z 25002KT 17/15 A2999 RMK A01 T01700154  RH  090%=      5-min Rain = 0
KES1 161056Z 25001KT 17/15 A2999 RMK A01 T01710154  RH  090%=      5-min Rain = 0
KES1 161057Z 24001KT 17/15 A2999 RMK A01 T01710154  RH  089%=      5-min Rain = 0
KES1 161058Z 24001KT 17/15 A2998 RMK A01 T01700153  RH  090%=      5-min Rain = 0
KES1 161059Z 24001KT 17/15 A2998 RMK A01 T01680153  RH  091%=      5-min Rain = 0
KES1 161100Z 23001KT 17/15 A2998 RMK A01 T01680153  RH  091%=      5-min Rain = 0
KES1 161101Z 24002KT 17/15 A2998 RMK A01 T01670153  RH  091%=      5-min Rain = 0
KES1 161102Z 25002KT 17/15 A2998 RMK A01 T01670153  RH  092%=      5-min Rain = 0
KES1 161103Z 25002KT 17/15 A2998 RMK A01 T01670153  RH  092%=      5-min Rain = 0
KES1 161104Z 26002KT 17/15 A2998 RMK A01 T01670153  RH  092%=      5-min Rain = 0
KES1 161105Z 27002KT 17/15 A2998 RMK A01 T01670154  RH  092%=      5-min Rain = 0
KES1 161106Z 27002KT 17/15 A2998 RMK A01 T01670153  RH  092%=      5-min Rain = 0
KES1 161107Z 26003KT 17/15 A2998 RMK A01 T01680154  RH  091%=      5-min Rain = 0
KES1 161108Z 26003KT 17/15 A2998 RMK A01 T01680154  RH  091%=      5-min Rain = 0
KES1 161109Z 26003KT 17/15 A2998 RMK A01 T01680154  RH  091%=      5-min Rain = 0
KES1 161110Z 26003KT 17/15 A2998 RMK A01 T01680154  RH  091%=      5-min Rain = 0
KES1 161111Z 25003KT 17/15 A2998 RMK A01 T01680153  RH  091%=      5-min Rain = 0
KES1 161112Z 25003KT 17/15 A2998 RMK A01 T01670153  RH  091%=      5-min Rain = 0
KES1 161113Z 26002KT 17/15 A2998 RMK A01 T01670154  RH  091%=      5-min Rain = 0
KES1 161114Z 26002KT 17/15 A2998 RMK A01 T01670153  RH  091%=      5-min Rain = 0
KES1 161115Z 25003KT 17/15 A2998 RMK A01 T01670153  RH  091%=      5-min Rain = 0
KES1 161116Z 25003KT 17/15 A2998 RMK A01 T01670153  RH  091%=      5-min Rain = 0
KES1 161117Z 24003KT 17/15 A2998 RMK A01 T01670153  RH  091%=      5-min Rain = 0
KES1 161118Z 23003KT 17/15 A2998 RMK A01 T01670153  RH  091%=      5-min Rain = 0
KES1 161119Z 22003KT 17/15 A2998 RMK A01 T01670153  RH  092%=      5-min Rain = 0
KES1 161120Z 23003KT 17/15 A2998 RMK A01 T01660153  RH  092%=      5-min Rain = 0
KES1 161121Z 24002KT 17/15 A2997 RMK A01 T01650153  RH  092%=      5-min Rain = 0
KES1 161122Z 25002KT 17/15 A2997 RMK A01 T01650153  RH  093%=      5-min Rain = 0
KES1 161123Z 25002KT 17/15 A2997 RMK A01 T01650153  RH  093%=      5-min Rain = 0
KES1 161124Z 25003KT 17/15 A2997 RMK A01 T01650153  RH  093%=      5-min Rain = 0
KES1 161125Z 26003KT 17/15 A2997 RMK A01 T01650153  RH  093%=      5-min Rain = 0
KES1 161126Z 26002KT 17/15 A2997 RMK A01 T01650153  RH  093%=      5-min Rain = 0
KES1 161127Z 26002KT 17/15 A2997 RMK A01 T01650153  RH  093%=      5-min Rain = 0
KES1 161128Z 26001KT 17/15 A2997 RMK A01 T01660153  RH  093%=      5-min Rain = 0
KES1 161129Z 22001KT 17/15 A2997 RMK A01 T01660154  RH  093%=      5-min Rain = 0
KES1 161130Z 19002KT 17/15 A2997 RMK A01 T01660153  RH  092%=      5-min Rain = 0
KES1 161131Z 16002KT 16/15 A2997 RMK A01 T01640151  RH  092%=      5-min Rain = 0
KES1 161132Z 15002KT 16/15 A2997 RMK A01 T01630152  RH  093%=      5-min Rain = 0
KES1 161133Z 16002KT 16/15 A2997 RMK A01 T01620152  RH  094%=      5-min Rain = 0
KES1 161134Z 20002KT 16/15 A2997 RMK A01 T01620152  RH  094%=      5-min Rain = 0
KES1 161135Z 23002KT 16/15 A2997 RMK A01 T01630153  RH  094%=      5-min Rain = 0
KES1 161136Z 24003KT 16/15 A2997 RMK A01 T01640154  RH  094%=      5-min Rain = 0
KES1 161137Z 25003KT 16/15 A2997 RMK A01 T01640154  RH  094%=      5-min Rain = 0
KES1 161138Z 25003KT 16/15 A2997 RMK A01 T01640154  RH  094%=      5-min Rain = 0
KES1 161139Z 24004KT 17/16 A2997 RMK A01 T01650155  RH  094%=      5-min Rain = 0
KES1 161140Z 23004KT 17/16 A2997 RMK A01 T01650155  RH  094%=      5-min Rain = 0
KES1 161141Z 23005KT 17/16 A2997 RMK A01 T01650155  RH  093%=      5-min Rain = 0
KES1 161142Z 23005KT 17/16 A2997 RMK A01 T01650155  RH  093%=      5-min Rain = 0
KES1 161143Z 24005KT 17/16 A2997 RMK A01 T01660155  RH  093%=      5-min Rain = 0
KES1 161144Z 23005KT 17/16 A2997 RMK A01 T01670156  RH  093%=      5-min Rain = 0
KES1 161145Z 23006KT 17/16 A2997 RMK A01 T01680156  RH  093%=      5-min Rain = 0
KES1 161146Z 23006KT 17/16 A2998 RMK A01 T01680156  RH  093%=      5-min Rain = 0
KES1 161147Z 23006KT 17/16 A2998 RMK A01 T01680156  RH  092%=      5-min Rain = 0
KES1 161148Z 23005KT 17/16 A2998 RMK A01 T01680155  RH  092%=      5-min Rain = 0
KES1 161149Z 23005KT 17/16 A2998 RMK A01 T01680155  RH  092%=      5-min Rain = 0
KES1 161150Z 23005KT 17/16 A2998 RMK A01 T01680156  RH  092%=      5-min Rain = 0
KES1 161151Z 22005KT 17/16 A2998 RMK A01 T01680156  RH  092%=      5-min Rain = 0
KES1 161152Z 22005KT 17/16 A2998 RMK A01 T01680156  RH  092%=      5-min Rain = 0
KES1 161153Z 23005KT 17/16 A2998 RMK A01 T01680156  RH  093%=      5-min Rain = 0
KES1 161154Z 23005KT 17/16 A2998 RMK A01 T01670156  RH  093%=      5-min Rain = 0
KES1 161155Z 23005KT 17/16 A2998 RMK A01 T01670156  RH  093%=      5-min Rain = 0
KES1 161156Z 23006KT 17/16 A2998 RMK A01 T01670156  RH  093%=      5-min Rain = 0
KES1 161157Z 23006KT 17/16 A2998 RMK A01 T01680156  RH  093%=      5-min Rain = 0
KES1 161158Z 23006KT 17/16 A2998 RMK A01 T01670155  RH  093%=      5-min Rain = 0
KES1 161159Z 23005KT 17/16 A2998 RMK A01 T01670156  RH  093%=      5-min Rain = 0
KES1 161200Z 23006KT 17/16 A2998 RMK A01 T01670155  RH  093%=      5-min Rain = 0
KES1 161201Z 23005KT 17/16 A2998 RMK A01 T01680156  RH  092%=      5-min Rain = 0
KES1 161202Z 24006KT 17/16 A2998 RMK A01 T01680156  RH  092%=      5-min Rain = 0
KES1 161203Z 24006KT 17/16 A2998 RMK A01 T01680156  RH  092%=      5-min Rain = 0
KES1 161204Z 24006KT 17/16 A2998 RMK A01 T01690156  RH  092%=      5-min Rain = 0
KES1 161205Z 24005KT 17/16 A2998 RMK A01 T01690156  RH  092%=      5-min Rain = 0
KES1 161206Z 25005KT 17/16 A2998 RMK A01 T01690157  RH  092%=      5-min Rain = 0
KES1 161207Z 25005KT 17/16 A2999 RMK A01 T01690157  RH  092%=      5-min Rain = 0
KES1 161208Z 25005KT 17/16 A2999 RMK A01 T01690157  RH  092%=      5-min Rain = 0
KES1 161209Z 25005KT 17/16 A2999 RMK A01 T01690157  RH  093%=      5-min Rain = 0
KES1 161210Z 24004KT 17/16 A2999 RMK A01 T01690157  RH  092%=      5-min Rain = 0
KES1 161211Z 24004KT 17/16 A2999 RMK A01 T01700158  RH  092%=      5-min Rain = 0
KES1 161212Z 23003KT 17/16 A2999 RMK A01 T01700158  RH  092%=      5-min Rain = 0
KES1 161213Z 22003KT 17/16 A2999 RMK A01 T01700157  RH  092%=      5-min Rain = 0
KES1 161214Z 20003KT 17/16 A2999 RMK A01 T01700158  RH  092%=      5-min Rain = 0
KES1 161215Z 19003KT 17/16 A2999 RMK A01 T01710158  RH  092%=      5-min Rain = 0
KES1 161216Z 17002KT 17/16 A2999 RMK A01 T01710159  RH  092%=      5-min Rain = 0
KES1 161217Z 16002KT 17/16 A2999 RMK A01 T01710160  RH  093%=      5-min Rain = 0
KES1 161218Z 14002KT 17/16 A2999 RMK A01 T01710160  RH  093%=      5-min Rain = 0
KES1 161219Z 14002KT 17/16 A2999 RMK A01 T01720160  RH  092%=      5-min Rain = 0
KES1 161220Z 13002KT 17/16 A2999 RMK A01 T01720160  RH  093%=      5-min Rain = 0
KES1 161221Z 13002KT 17/16 A2999 RMK A01 T01730160  RH  092%=      5-min Rain = 0
KES1 161222Z 12001KT 17/16 A2999 RMK A01 T01730160  RH  092%=      5-min Rain = 0
KES1 161223Z 14001KT 17/16 A2999 RMK A01 T01740159  RH  091%=      5-min Rain = 0
KES1 161224Z 12001KT 17/16 A30 RMK A01 T01740160  RH  091%=      5-min Rain = 0
KES1 161225Z 08001KT 17/16 A30 RMK A01 T01740159  RH  091%=      5-min Rain = 0
KES1 161226Z 06003KT 18/16 A30 RMK A01 T01750161  RH  091%=      5-min Rain = 0
KES1 161227Z 05005KT 18/16 A30 RMK A01 T01750161  RH  092%=      5-min Rain = 0
KES1 161228Z 05006KT 18/16 A30 RMK A01 T01750162  RH  092%=      5-min Rain = 0
KES1 161229Z 04005KT 18/16 A30 RMK A01 T01750162  RH  092%=      5-min Rain = 0
KES1 161230Z 03004KT 18/16 A3001 RMK A01 T01750162  RH  092%=      5-min Rain = 0
KES1 161231Z 36003KT 18/16 A3001 RMK A01 T01750162  RH  092%=      5-min Rain = 0
KES1 161232Z 32003KT 18/16 A3001 RMK A01 T01750162  RH  092%=      5-min Rain = 0
KES1 161233Z 31003KT 18/16 A3002 RMK A01 T01760163  RH  092%=      5-min Rain = 0
KES1 161234Z 31004KT 18/16 A3002 RMK A01 T01760163  RH  092%=      5-min Rain = 0
KES1 161235Z 31004KT 18/16 A3002 RMK A01 T01760164  RH  093%=      5-min Rain = 0
KES1 161236Z 32003KT 18/16 A3002 RMK A01 T01760164  RH  093%=      5-min Rain = 0
KES1 161237Z 33003KT 18/16 A3002 RMK A01 T01760164  RH  093%=      5-min Rain = 0
KES1 161238Z 33002KT 18/16 A3002 RMK A01 T01760163  RH  092%=      5-min Rain = 0
KES1 161239Z 32002KT 18/16 A3002 RMK A01 T01750163  RH  093%=      5-min Rain = 0
KES1 161240Z 33002KT 18/16 A3002 RMK A01 T01750164  RH  093%=      5-min Rain = 0
KES1 161241Z 32002KT 18/16 A3002 RMK A01 T01750164  RH  093%=      5-min Rain = 0
KES1 161242Z 31002KT 18/16 A3002 RMK A01 T01750164  RH  093%=      5-min Rain = 0
KES1 161243Z 30001KT 18/16 A3003 RMK A01 T01750164  RH  093%=      5-min Rain = 0
KES1 161244Z 30002KT 18/16 A3003 RMK A01 T01750164  RH  093%=      5-min Rain = 0
KES1 161245Z 31003KT 18/17 A3003 RMK A01 T01750165  RH  093%=      5-min Rain = 0
KES1 161246Z 31003KT 18/16 A3003 RMK A01 T01750164  RH  093%=      5-min Rain = 0
KES1 161247Z 32003KT 18/16 A3003 RMK A01 T01750164  RH  093%=      5-min Rain = 0
KES1 161248Z 33002KT 18/16 A3002 RMK A01 T01760164  RH  093%=      5-min Rain = 0
KES1 161249Z 33002KT 18/16 A3002 RMK A01 T01760164  RH  093%=      5-min Rain = 0
KES1 161250Z 32001KT 18/16 A3002 RMK A01 T01760164  RH  093%=      5-min Rain = 0
KES1 161251Z 31000KT 18/17 A3003 RMK A01 T01760165  RH  093%=      5-min Rain = 0
KES1 161252Z 24001KT 18/17 A3003 RMK A01 T01760165  RH  093%=      5-min Rain = 0
KES1 161253Z 24002KT 18/17 A3003 RMK A01 T01760165  RH  093%=      5-min Rain = 0
KES1 161254Z 24003KT 18/16 A3003 RMK A01 T01760164  RH  093%=      5-min Rain = 0
KES1 161255Z 25003KT 18/17 A3003 RMK A01 T01770165  RH  093%=      5-min Rain = 0
KES1 161256Z 24003KT 18/17 A3003 RMK A01 T01770165  RH  093%=      5-min Rain = 0
KES1 161257Z 22002KT 18/17 A3003 RMK A01 T01770165  RH  093%=      5-min Rain = 0
KES1 161258Z 20003KT 18/17 A3003 RMK A01 T01780165  RH  092%=      5-min Rain = 0
KES1 161259Z 18002KT 18/17 A3003 RMK A01 T01780166  RH  093%=      5-min Rain = 0
KES1 161300Z 17001KT 18/17 A3003 RMK A01 T01780167  RH  093%=      5-min Rain = 0
KES1 161301Z 15001KT 18/17 A3002 RMK A01 T01790167  RH  093%=      5-min Rain = 0
KES1 161302Z 15000KT 18/17 A3003 RMK A01 T01790167  RH  092%=      5-min Rain = 0
KES1 161303Z 17001KT 18/17 A3003 RMK A01 T01800167  RH  092%=      5-min Rain = 0
KES1 161304Z 16001KT 18/17 A3003 RMK A01 T01800167  RH  092%=      5-min Rain = 0
KES1 161305Z 14001KT 18/17 A3003 RMK A01 T01810168  RH  092%=      5-min Rain = 0
KES1 161306Z 17001KT 18/17 A3003 RMK A01 T01810168  RH  092%=      5-min Rain = 0
KES1 161307Z 16000KT 18/17 A3003 RMK A01 T01810168  RH  092%=      5-min Rain = 0
KES1 161308Z 18002KT 18/17 A3003 RMK A01 T01820168  RH  091%=      5-min Rain = 0
KES1 161309Z 19002KT 18/17 A3003 RMK A01 T01820168  RH  092%=      5-min Rain = 0
KES1 161310Z 19002KT 18/17 A3003 RMK A01 T01830169  RH  092%=      5-min Rain = 0
KES1 161311Z 20003KT 18/17 A3003 RMK A01 T01840169  RH  091%=      5-min Rain = 0
KES1 161312Z 20003KT 18/17 A3003 RMK A01 T01840168  RH  090%=      5-min Rain = 0
KES1 161313Z 23002KT 19/17 A3003 RMK A01 T01850169  RH  090%=      5-min Rain = 0
KES1 161314Z 25002KT 19/17 A3003 RMK A01 T01850170  RH  091%=      5-min Rain = 0
KES1 161315Z 31003KT 19/17 A3004 RMK A01 T01850169  RH  091%=      5-min Rain = 0
KES1 161316Z 33004KT 19/17 A3004 RMK A01 T01850170  RH  091%=      5-min Rain = 0
KES1 161317Z 34005KT 19/17 A3004 RMK A01 T01850170  RH  091%=      5-min Rain = 0
KES1 161318Z 35006KT 19/17 A3005 RMK A01 T01850170  RH  091%=      5-min Rain = 0
KES1 161319Z 34007KT 19/17 A3005 RMK A01 T01850171  RH  092%=      5-min Rain = 0
KES1 161320Z 34007KT 18/17 A3005 RMK A01 T01840170  RH  091%=      5-min Rain = 0
KES1 161321Z 33007KT 18/17 A3006 RMK A01 T01830168  RH  091%=      5-min Rain = 0
KES1 161322Z 33006KT 18/17 A3006 RMK A01 T01830168  RH  091%=      5-min Rain = 0
KES1 161323Z 00007KT 18/17 A3006 RMK A01 T01830169  RH  092%=      5-min Rain = 0
KES1 161324Z 01007KT 18/17 A3006 RMK A01 T01820169  RH  092%=      5-min Rain = 0
KES1 161325Z 02006KT 18/17 A3006 RMK A01 T01820169  RH  092%=      5-min Rain = 0
KES1 161326Z 01005KT 18/17 A3006 RMK A01 T01810169  RH  093%=      5-min Rain = 0
KES1 161327Z 36004KT 18/17 A3006 RMK A01 T01800168  RH  093%=      5-min Rain = 0
KES1 161328Z 35005KT 18/17 A3006 RMK A01 T01800168  RH  093%=      5-min Rain = 0
KES1 161329Z 33007KT 18/17 A3007 RMK A01 T01790167  RH  092%=      5-min Rain = 0
KES1 161330Z 31008KT 18/17 A3007 RMK A01 T01790167  RH  093%=      5-min Rain = 0.01
KES1 161331Z 31009KT 18/17 A3007 RMK A01 T01790168  RH  094%=      5-min Rain = 0
KES1 161332Z 32009KT 18/17 A3008 RMK A01 T01780168  RH  094%=      5-min Rain = 0
KES1 161333Z 32008KT 18/17 A3008 RMK A01 T01780166  RH  093%=      5-min Rain = 0
KES1 161334Z 35005KT 18/17 A3007 RMK A01 T01780165  RH  092%=      5-min Rain = 0
KES1 161335Z 02005KT 18/17 A3007 RMK A01 T01780166  RH  092%=      5-min Rain = 0
KES1 161336Z 03005KT 18/17 A3007 RMK A01 T01780166  RH  093%=      5-min Rain = 0
KES1 161337Z 04006KT 18/17 A3007 RMK A01 T01770166  RH  093%=      5-min Rain = 0.01
KES1 161338Z 04006KT 18/17 A3007 RMK A01 T01770165  RH  093%=      5-min Rain = 0
KES1 161339Z 03006KT 18/17 A3007 RMK A01 T01760165  RH  093%=      5-min Rain = 0.01
KES1 161340Z 04005KT 18/17 A3006 RMK A01 T01760166  RH  093%=      5-min Rain = 0
KES1 161341Z 05005KT 18/17 A3006 RMK A01 T01760165  RH  093%=      5-min Rain = 0
KES1 161342Z 07003KT 18/17 A3006 RMK A01 T01760165  RH  093%=      5-min Rain = 0.01
KES1 161343Z 12003KT 18/17 A3006 RMK A01 T01760165  RH  093%=      5-min Rain = 0
KES1 161344Z 13004KT 18/17 A3006 RMK A01 T01760166  RH  094%=      5-min Rain = 0
KES1 161345Z 13005KT 18/17 A3005 RMK A01 T01760166  RH  094%=      5-min Rain = 0
KES1 161346Z 12006KT 18/17 A3005 RMK A01 T01760167  RH  094%=      5-min Rain = 0
KES1 161347Z 12006KT 18/17 A3005 RMK A01 T01750167  RH  095%=      5-min Rain = 0.01
KES1 161348Z 12005KT 18/17 A3005 RMK A01 T01750166  RH  095%=      5-min Rain = 0
KES1 161349Z 10005KT 18/17 A3005 RMK A01 T01750166  RH  094%=      5-min Rain = 0.01
KES1 161350Z 10005KT 18/17 A3005 RMK A01 T01750167  RH  095%=      5-min Rain = 0
KES1 161351Z 09004KT 18/17 A3005 RMK A01 T01750167  RH  095%=      5-min Rain = 0.01
KES1 161352Z 08004KT 18/17 A3005 RMK A01 T01750167  RH  095%=      5-min Rain = 0.01
KES1 161353Z 07004KT 18/17 A3005 RMK A01 T01750167  RH  095%=      5-min Rain = 0
KES1 161354Z 06004KT 18/17 A3006 RMK A01 T01750167  RH  095%=      5-min Rain = 0.01
KES1 161355Z 05004KT 18/17 A3006 RMK A01 T01750166  RH  095%=      5-min Rain = 0
KES1 161356Z 01003KT 18/17 A3006 RMK A01 T01750167  RH  095%=      5-min Rain = 0.01
KES1 161357Z 35005KT 18/17 A3007 RMK A01 T01760167  RH  095%=      5-min Rain = 0
KES1 161358Z 36006KT 18/17 A3007 RMK A01 T01760168  RH  095%=      5-min Rain = 0
KES1 161359Z 03006KT 18/17 A3006 RMK A01 T01760168  RH  095%=      5-min Rain = 0
KES1 161400Z 04006KT 18/17 A3006 RMK A01 T01760168  RH  095%=      5-min Rain = 0
KES1 161401Z 04005KT 18/17 A3006 RMK A01 T01760168  RH  095%=      5-min Rain = 0
KES1 161402Z 03004KT 18/17 A3007 RMK A01 T01760168  RH  095%=      5-min Rain = 0
KES1 161403Z 34003KT 18/17 A3007 RMK A01 T01760167  RH  094%=      5-min Rain = 0
KES1 161404Z 31009KT 18/17 A3007 RMK A01 T01770168  RH  094%=      5-min Rain = 0
KES1 161405Z 31010KT 18/17 A3007 RMK A01 T01770170  RH  095%=      5-min Rain = 0
KES1 161406Z 32010KT 18/17 A3007 RMK A01 T01770169  RH  095%=      5-min Rain = 0
KES1 161407Z 33007KT 18/17 A3007 RMK A01 T01770169  RH  095%=      5-min Rain = 0
KES1 161408Z 36004KT 18/17 A3006 RMK A01 T01770167  RH  094%=      5-min Rain = 0
KES1 161409Z 04003KT 18/17 A3006 RMK A01 T01770167  RH  094%=      5-min Rain = 0
KES1 161410Z 09002KT 18/17 A3006 RMK A01 T01770167  RH  094%=      5-min Rain = 0
KES1 161411Z 11003KT 18/17 A3006 RMK A01 T01770168  RH  094%=      5-min Rain = 0
KES1 161412Z 11003KT 18/17 A3005 RMK A01 T01770168  RH  094%=      5-min Rain = 0
KES1 161413Z 13002KT 18/17 A3005 RMK A01 T01780168  RH  094%=      5-min Rain = 0
KES1 161414Z 13002KT 18/17 A3005 RMK A01 T01770168  RH  094%=      5-min Rain = 0
KES1 161415Z 13001KT 18/17 A3005 RMK A01 T01780169  RH  095%=      5-min Rain = 0
KES1 161416Z 15003KT 18/17 A3004 RMK A01 T01780169  RH  095%=      5-min Rain = 0
KES1 161417Z 14003KT 18/17 A3004 RMK A01 T01770169  RH  095%=      5-min Rain = 0
KES1 161418Z 15004KT 18/17 A3004 RMK A01 T01780169  RH  095%=      5-min Rain = 0
KES1 161419Z 16005KT 18/17 A3003 RMK A01 T01780169  RH  094%=      5-min Rain = 0
KES1 161420Z 17006KT 18/17 A3003 RMK A01 T01790169  RH  094%=      5-min Rain = 0
KES1 161421Z 19007KT 18/17 A3003 RMK A01 T01790170  RH  094%=      5-min Rain = 0
KES1 161422Z 19009KT 18/17 A3003 RMK A01 T01800171  RH  095%=      5-min Rain = 0
KES1 161423Z 20009KT 18/17 A3003 RMK A01 T01800171  RH  094%=      5-min Rain = 0
KES1 161424Z 20009KT 18/17 A3003 RMK A01 T01800170  RH  094%=      5-min Rain = 0
KES1 161425Z 20009KT 18/17 A3004 RMK A01 T01800170  RH  094%=      5-min Rain = 0
KES1 161426Z 19008KT 18/17 A3004 RMK A01 T01800169  RH  093%=      5-min Rain = 0
KES1 161427Z 19007KT 18/17 A3004 RMK A01 T01800168  RH  093%=      5-min Rain = 0
KES1 161428Z 18005KT 18/17 A3004 RMK A01 T01800168  RH  092%=      5-min Rain = 0
KES1 161429Z 18004KT 18/17 A3005 RMK A01 T01810168  RH  092%=      5-min Rain = 0
KES1 161430Z 33003KT 18/17 A3005 RMK A01 T01810168  RH  092%=      5-min Rain = 0
KES1 161431Z 00008KT 18/17 A3005 RMK A01 T01810169  RH  092%=      5-min Rain = 0
KES1 161432Z 00010KT 18/17 A3005 RMK A01 T01810170  RH  093%=      5-min Rain = 0
KES1 161433Z 36010KT 18/17 A3005 RMK A01 T01800170  RH  094%=      5-min Rain = 0
KES1 161434Z 35009KT 18/17 A3004 RMK A01 T01800170  RH  094%=      5-min Rain = 0.01
KES1 161435Z 35009KT 18/17 A3004 RMK A01 T01790170  RH  094%=      5-min Rain = 0
KES1 161436Z 34008KT 18/17 A3004 RMK A01 T01790170  RH  094%=      5-min Rain = 0
KES1 161437Z 33008KT 18/17 A3005 RMK A01 T01790171  RH  095%=      5-min Rain = 0
KES1 161438Z 32007KT 18/17 A3005 RMK A01 T01790171  RH  095%=      5-min Rain = 0
KES1 161439Z 31008KT 18/17 A3006 RMK A01 T01790171  RH  095%=      5-min Rain = 0
KES1 161440Z 30007KT 18/17 A3006 RMK A01 T01780171  RH  096%=      5-min Rain = 0
KES1 161441Z 29007KT 18/17 A3007 RMK A01 T01780171  RH  096%=      5-min Rain = 0.01
KES1 161442Z 29009KT 18/17 A3007 RMK A01 T01780170  RH  095%=      5-min Rain = 0
KES1 161443Z 29009KT 18/17 A3008 RMK A01 T01780169  RH  095%=      5-min Rain = 0
KES1 161444Z 30008KT 18/17 A3008 RMK A01 T01780169  RH  094%=      5-min Rain = 0
KES1 161445Z 30007KT 18/17 A3008 RMK A01 T01780169  RH  095%=      5-min Rain = 0
KES1 161446Z 30007KT 18/17 A3008 RMK A01 T01780169  RH  094%=      5-min Rain = 0
KES1 161447Z 31008KT 18/17 A3008 RMK A01 T01780168  RH  094%=      5-min Rain = 0
KES1 161448Z 31007KT 18/17 A3008 RMK A01 T01790169  RH  094%=      5-min Rain = 0.01
KES1 161449Z 31007KT 18/17 A3008 RMK A01 T01780169  RH  094%=      5-min Rain = 0
KES1 161450Z 30006KT 18/17 A3008 RMK A01 T01780168  RH  094%=      5-min Rain = 0
KES1 161451Z 30007KT 18/17 A3008 RMK A01 T01780167  RH  093%=      5-min Rain = 0.01
KES1 161452Z 28006KT 18/17 A3007 RMK A01 T01790167  RH  092%=      5-min Rain = 0
KES1 161453Z 30005KT 18/17 A3007 RMK A01 T01790167  RH  092%=      5-min Rain = 0.01
KES1 161454Z 30003KT 18/17 A3007 RMK A01 T01790167  RH  092%=      5-min Rain = 0
KES1 161455Z 31003KT 18/17 A3007 RMK A01 T01790168  RH  093%=      5-min Rain = 0.01
KES1 161456Z 30003KT 18/17 A3007 RMK A01 T01790168  RH  093%=      5-min Rain = 0
KES1 161457Z 30004KT 18/17 A3007 RMK A01 T01780168  RH  093%=      5-min Rain = 0
KES1 161458Z 31004KT 18/17 A3007 RMK A01 T01790168  RH  093%=      5-min Rain = 0.01
KES1 161459Z 32004KT 18/17 A3008 RMK A01 T01790169  RH  094%=      5-min Rain = 0.01
KES1 161500Z 33003KT 18/17 A3008 RMK A01 T01780169  RH  094%=      5-min Rain = 0
KES1 161501Z 32003KT 18/17 A3009 RMK A01 T01780169  RH  094%=      5-min Rain = 0.01
KES1 161502Z 30004KT 18/17 A3009 RMK A01 T01780170  RH  095%=      5-min Rain = 0
KES1 161503Z 28004KT 18/17 A3009 RMK A01 T01780170  RH  095%=      5-min Rain = 0.01
KES1 161504Z 25005KT 18/17 A3009 RMK A01 T01780170  RH  095%=      5-min Rain = 0
KES1 161505Z 26006KT 18/17 A3009 RMK A01 T01770169  RH  095%=      5-min Rain = 0
KES1 161506Z 24004KT 18/17 A3008 RMK A01 T01770169  RH  095%=      5-min Rain = 0.01
KES1 161507Z 20004KT 18/17 A3008 RMK A01 T01770169  RH  095%=      5-min Rain = 0
KES1 161508Z 18005KT 18/17 A3007 RMK A01 T01760168  RH  095%=      5-min Rain = 0.01
KES1 161509Z 16004KT 18/17 A3007 RMK A01 T01770169  RH  095%=      5-min Rain = 0.02
KES1 161510Z 16004KT 18/17 A3007 RMK A01 T01760169  RH  095%=      5-min Rain = 0.03
KES1 161511Z 20003KT 18/17 A3007 RMK A01 T01760168  RH  095%=      5-min Rain = 0.02
KES1 161512Z 26003KT 18/17 A3008 RMK A01 T01760168  RH  095%=      5-min Rain = 0.02
KES1 161513Z 32005KT 18/17 A3008 RMK A01 T01760168  RH  095%=      5-min Rain = 0.01
KES1 161514Z 32007KT 18/17 A3009 RMK A01 T01760169  RH  095%=      5-min Rain = 0
KES1 161515Z 32007KT 18/17 A3009 RMK A01 T01760169  RH  095%=      5-min Rain = 0
KES1 161516Z 34007KT 18/17 A3009 RMK A01 T01760169  RH  096%=      5-min Rain = 0
KES1 161517Z 34005KT 18/17 A3009 RMK A01 T01760170  RH  096%=      5-min Rain = 0
KES1 161518Z 32004KT 18/17 A3009 RMK A01 T01770170  RH  096%=      5-min Rain = 0
KES1 161519Z 30004KT 18/17 A3009 RMK A01 T01760170  RH  096%=      5-min Rain = 0.01
KES1 161520Z 28004KT 18/17 A3009 RMK A01 T01770170  RH  096%=      5-min Rain = 0.02
KES1 161521Z 27003KT 18/17 A3009 RMK A01 T01760169  RH  096%=      5-min Rain = 0.02
KES1 161522Z 24001KT 18/17 A3008 RMK A01 T01770170  RH  096%=      5-min Rain = 0.02
KES1 161523Z 16001KT 18/17 A3007 RMK A01 T01750167  RH  095%=      5-min Rain = 0.02
KES1 161524Z 13004KT 18/17 A3006 RMK A01 T01760166  RH  094%=      5-min Rain = 0.03
KES1 161525Z 12006KT 18/17 A3006 RMK A01 T01770165  RH  093%=      5-min Rain = 0.01
KES1 161526Z 15008KT 18/17 A3005 RMK A01 T01770166  RH  093%=      5-min Rain = 0.01
KES1 161527Z 15008KT 18/17 A3005 RMK A01 T01770167  RH  094%=      5-min Rain = 0.01
KES1 161528Z 15007KT 18/17 A3005 RMK A01 T01760167  RH  094%=      5-min Rain = 0.01
KES1 161529Z 14007KT 18/17 A3005 RMK A01 T01760167  RH  094%=      5-min Rain = 0.01
KES1 161530Z 12006KT 18/17 A3005 RMK A01 T01760165  RH  093%=      5-min Rain = 0.01
KES1 161531Z 11006KT 18/17 A3005 RMK A01 T01770166  RH  093%=      5-min Rain = 0
KES1 161532Z 10007KT 18/17 A3005 RMK A01 T01770165  RH  093%=      5-min Rain = 0
KES1 161533Z 09010KT 18/17 A3005 RMK A01 T01770166  RH  093%=      5-min Rain = 0.01
KES1 161534Z 08009KT 18/17 A3004 RMK A01 T01770167  RH  094%=      5-min Rain = 0
KES1 161535Z 08009KT 18/17 A3005 RMK A01 T01770168  RH  095%=      5-min Rain = 0.01
KES1 161536Z 08009KT 18/17 A3005 RMK A01 T01760168  RH  095%=      5-min Rain = 0.01
KES1 161537Z 08007KT 18/17 A3005 RMK A01 T01760168  RH  095%=      5-min Rain = 0.01
KES1 161538Z 09006KT 18/17 A3005 RMK A01 T01760168  RH  095%=      5-min Rain = 0.01
KES1 161539Z 09006KT 18/17 A3005 RMK A01 T01760168  RH  095%=      5-min Rain = 0
KES1 161540Z 10006KT 18/17 A3005 RMK A01 T01760168  RH  095%=      5-min Rain = 0
KES1 161541Z 10006KT 18/17 A3005 RMK A01 T01770168  RH  095%=      5-min Rain = 0
KES1 161542Z 10004KT 18/17 A3005 RMK A01 T01780169  RH  095%=      5-min Rain = 0
KES1 161543Z 11004KT 18/17 A3005 RMK A01 T01780169  RH  094%=      5-min Rain = 0
KES1 161544Z 08001KT 18/17 A3006 RMK A01 T01780169  RH  094%=      5-min Rain = 0
KES1 161545Z 30003KT 18/17 A3006 RMK A01 T01790171  RH  095%=      5-min Rain = 0
KES1 161546Z 31007KT 18/17 A3006 RMK A01 T01800173  RH  095%=      5-min Rain = 0
KES1 161547Z 31009KT 18/18 A3006 RMK A01 T01810175  RH  096%=      5-min Rain = 0
KES1 161548Z 32009KT 18/18 A3006 RMK A01 T01810175  RH  096%=      5-min Rain = 0
KES1 161549Z 32011KT 18/17 A3006 RMK A01 T01820174  RH  095%=      5-min Rain = 0
KES1 161550Z 31011KT 18/17 A3006 RMK A01 T01820172  RH  094%=      5-min Rain = 0
KES1 161551Z 33009KT 18/17 A3006 RMK A01 T01820171  RH  093%=      5-min Rain = 0
KES1 161552Z 33008KT 18/17 A3006 RMK A01 T01830170  RH  092%=      5-min Rain = 0
KES1 161553Z 33008KT 18/17 A3006 RMK A01 T01830167  RH  090%=      5-min Rain = 0
KES1 161554Z 34007KT 18/17 A3006 RMK A01 T01840167  RH  090%=      5-min Rain = 0
KES1 161555Z 33006KT 19/17 A3006 RMK A01 T01850165  RH  088%=      5-min Rain = 0
KES1 161556Z 34007KT 19/17 A3007 RMK A01 T01850165  RH  088%=      5-min Rain = 0
KES1 161557Z 33006KT 19/17 A3007 RMK A01 T01860165  RH  088%=      5-min Rain = 0
KES1 161558Z 34005KT 19/17 A3007 RMK A01 T01860166  RH  088%=      5-min Rain = 0
KES1 161559Z 35004KT 19/17 A3007 RMK A01 T01860168  RH  089%=      5-min Rain = 0
KES1 161600Z 35005KT 19/17 A3007 RMK A01 T01860167  RH  089%=      5-min Rain = 0
KES1 161601Z 35004KT 19/17 A3007 RMK A01 T01860167  RH  088%=      5-min Rain = 0
KES1 161602Z 34004KT 19/17 A3006 RMK A01 T01860168  RH  089%=      5-min Rain = 0
KES1 161603Z 33003KT 19/17 A3006 RMK A01 T01860168  RH  090%=      5-min Rain = 0
KES1 161604Z 32002KT 19/17 A3006 RMK A01 T01850169  RH  090%=      5-min Rain = 0
KES1 161605Z 27001KT 19/17 A3005 RMK A01 T01850171  RH  091%=      5-min Rain = 0
KES1 161606Z 26001KT 19/17 A3005 RMK A01 T01850172  RH  092%=      5-min Rain = 0
KES1 161607Z 23002KT 19/17 A3005 RMK A01 T01850169  RH  090%=      5-min Rain = 0
KES1 161608Z 24003KT 19/17 A3005 RMK A01 T01850172  RH  092%=      5-min Rain = 0
KES1 161609Z 25002KT 19/17 A3005 RMK A01 T01850171  RH  091%=      5-min Rain = 0
KES1 161610Z 29003KT 19/17 A3005 RMK A01 T01850173  RH  092%=      5-min Rain = 0
KES1 161611Z 30004KT 19/17 A3006 RMK A01 T01850172  RH  092%=      5-min Rain = 0
KES1 161612Z 31006KT 19/17 A3006 RMK A01 T01850172  RH  092%=      5-min Rain = 0
KES1 161613Z 32008KT 19/17 A3007 RMK A01 T01850173  RH  093%=      5-min Rain = 0
KES1 161614Z 32009KT 19/17 A3008 RMK A01 T01850173  RH  093%=      5-min Rain = 0
KES1 161615Z 33011KT 19/17 A3009 RMK A01 T01850174  RH  093%=      5-min Rain = 0
KES1 161616Z 34012KT 19/17 A3009 RMK A01 T01850174  RH  093%=      5-min Rain = 0
KES1 161617Z 34012KT 19/17 A3009 RMK A01 T01850174  RH  093%=      5-min Rain = 0
KES1 161618Z 34013KT 19/17 A3009 RMK A01 T01850174  RH  093%=      5-min Rain = 0
KES1 161619Z 34014KT 19/18 A3009 RMK A01 T01850175  RH  094%=      5-min Rain = 0
KES1 161620Z 33014KT 19/18 A3009 RMK A01 T01850175  RH  094%=      5-min Rain = 0
KES1 161621Z 33014KT 19/18 A3009 RMK A01 T01850175  RH  094%=      5-min Rain = 0.01
KES1 161622Z 33012KT 19/18 A3009 RMK A01 T01850175  RH  094%=      5-min Rain = 0
KES1 161623Z 33010KT 18/18 A3009 RMK A01 T01840175  RH  094%=      5-min Rain = 0.01
KES1 161624Z 33009KT 18/18 A3009 RMK A01 T01840175  RH  094%=      5-min Rain = 0.01
KES1 161625Z 33008KT 18/18 A3008 RMK A01 T01840175  RH  095%=      5-min Rain = 0
KES1 161626Z 32005KT 18/18 A3008 RMK A01 T01830175  RH  095%=      5-min Rain = 0.01
KES1 161627Z 33004KT 18/18 A3007 RMK A01 T01830175  RH  095%=      5-min Rain = 0
KES1 161628Z 32005KT 18/18 A3007 RMK A01 T01830175  RH  095%=      5-min Rain = 0.01
KES1 161629Z 30003KT 18/18 A3007 RMK A01 T01830175  RH  095%=      5-min Rain = 0
KES1 161630Z 30002KT 18/18 A3006 RMK A01 T01830175  RH  095%=      5-min Rain = 0
KES1 161631Z 27002KT 18/18 A3006 RMK A01 T01830175  RH  095%=      5-min Rain = 0
KES1 161632Z 25002KT 18/18 A3006 RMK A01 T01830175  RH  095%=      5-min Rain = 0
KES1 161633Z 26003KT 18/17 A3006 RMK A01 T01820174  RH  095%=      5-min Rain = 0
KES1 161634Z 27003KT 18/17 A3006 RMK A01 T01820174  RH  095%=      5-min Rain = 0
KES1 161635Z 29005KT 18/18 A3007 RMK A01 T01820175  RH  095%=      5-min Rain = 0
KES1 161636Z 30006KT 18/18 A3007 RMK A01 T01830175  RH  095%=      5-min Rain = 0
KES1 161637Z 31006KT 18/18 A3007 RMK A01 T01820175  RH  096%=      5-min Rain = 0
KES1 161638Z 31006KT 18/18 A3008 RMK A01 T01830176  RH  096%=      5-min Rain = 0
KES1 161639Z 32006KT 18/18 A3008 RMK A01 T01830176  RH  096%=      5-min Rain = 0
KES1 161640Z 32005KT 18/18 A3008 RMK A01 T01820176  RH  096%=      5-min Rain = 0
KES1 161641Z 31004KT 18/18 A3007 RMK A01 T01820177  RH  096%=      5-min Rain = 0
KES1 161642Z 31003KT 18/18 A3007 RMK A01 T01820176  RH  096%=      5-min Rain = 0.01
KES1 161643Z 30002KT 18/18 A3007 RMK A01 T01820176  RH  096%=      5-min Rain = 0.01
KES1 161644Z 29001KT 18/18 A3007 RMK A01 T01830176  RH  096%=      5-min Rain = 0.01
KES1 161645Z 31001KT 18/18 A3006 RMK A01 T01830177  RH  096%=      5-min Rain = 0
KES1 161646Z 27000KT 18/18 A3006 RMK A01 T01830176  RH  096%=      5-min Rain = 0
KES1 161647Z 27002KT 18/18 A3006 RMK A01 T01830175  RH  095%=      5-min Rain = 0
KES1 161648Z 26003KT 18/18 A3006 RMK A01 T01830175  RH  095%=      5-min Rain = 0.01
KES1 161649Z 25004KT 18/18 A3006 RMK A01 T01830175  RH  095%=      5-min Rain = 0
KES1 161650Z 25006KT 18/18 A3006 RMK A01 T01830176  RH  095%=      5-min Rain = 0
KES1 161651Z 24006KT 18/18 A3005 RMK A01 T01830175  RH  095%=      5-min Rain = 0
KES1 161652Z 23007KT 18/18 A3005 RMK A01 T01830175  RH  095%=      5-min Rain = 0
KES1 161653Z 21007KT 18/17 A3004 RMK A01 T01820174  RH  095%=      5-min Rain = 0
KES1 161654Z 21008KT 18/17 A3004 RMK A01 T01820174  RH  095%=      5-min Rain = 0
KES1 161655Z 20008KT 18/17 A3004 RMK A01 T01830173  RH  094%=      5-min Rain = 0
KES1 161656Z 20007KT 18/17 A3003 RMK A01 T01830173  RH  094%=      5-min Rain = 0
KES1 161657Z 20007KT 18/17 A3003 RMK A01 T01830172  RH  094%=      5-min Rain = 0
KES1 161658Z 20006KT 18/17 A3003 RMK A01 T01840173  RH  093%=      5-min Rain = 0
KES1 161659Z 20006KT 19/18 A3003 RMK A01 T01860176  RH  094%=      5-min Rain = 0
KES1 161700Z 21005KT 19/18 A3003 RMK A01 T01880179  RH  094%=      5-min Rain = 0
KES1 161701Z 21006KT 19/18 A3004 RMK A01 T01910183  RH  095%=      5-min Rain = 0
KES1 161702Z 22007KT 19/19 A3004 RMK A01 T01930185  RH  095%=      5-min Rain = 0
KES1 161703Z 22008KT 20/19 A3004 RMK A01 T01970188  RH  095%=      5-min Rain = 0
KES1 161704Z 23009KT 20/19 A3004 RMK A01 T01980186  RH  093%=      5-min Rain = 0
KES1 161705Z 23009KT 20/19 A3004 RMK A01 T02000188  RH  093%=      5-min Rain = 0
KES1 161706Z 22011KT 20/19 A3003 RMK A01 T02010187  RH  091%=      5-min Rain = 0
KES1 161707Z 20009KT 20/19 A3003 RMK A01 T02020186  RH  091%=      5-min Rain = 0
KES1 161708Z 20009KT 20/19 A3003 RMK A01 T02020187  RH  091%=      5-min Rain = 0
KES1 161709Z 20011KT 20/18 A3002 RMK A01 T02020184  RH  089%=      5-min Rain = 0
KES1 161710Z 20008KT 20/18 A3002 RMK A01 T02030181  RH  087%=      5-min Rain = 0
KES1 161711Z 19008KT 21/18 A3002 RMK A01 T02050183  RH  087%=      5-min Rain = 0
KES1 161712Z 19008KT 21/18 A3002 RMK A01 T02070183  RH  086%=      5-min Rain = 0
KES1 161713Z 20009KT 21/18 A3002 RMK A01 T02090181  RH  084%=      5-min Rain = 0
KES1 161714Z 20011KT 21/18 A3002 RMK A01 T02100178  RH  082%=      5-min Rain = 0
KES1 161715Z 21009KT 21/18 A3002 RMK A01 T02110177  RH  081%=      5-min Rain = 0
KES1 161716Z 22007KT 21/18 A3002 RMK A01 T02130179  RH  081%=      5-min Rain = 0
KES1 161717Z 22010KT 22/18 A3002 RMK A01 T02150183  RH  082%=      5-min Rain = 0
KES1 161718Z 23008KT 22/18 A3002 RMK A01 T02170183  RH  081%=      5-min Rain = 0
KES1 161719Z 23007KT 22/19 A3002 RMK A01 T02180185  RH  081%=      5-min Rain = 0
KES1 161720Z 22006KT 22/19 A3002 RMK A01 T02190189  RH  083%=      5-min Rain = 0
KES1 161721Z 21007KT 22/19 A3002 RMK A01 T02210185  RH  080%=      5-min Rain = 0
KES1 161722Z 21005KT 22/18 A3002 RMK A01 T02230183  RH  078%=      5-min Rain = 0
KES1 161723Z 21007KT 23/18 A3001 RMK A01 T02250182  RH  077%=      5-min Rain = 0
KES1 161724Z 21008KT 23/18 A3001 RMK A01 T02260181  RH  076%=      5-min Rain = 0
KES1 161725Z 20008KT 23/18 A3001 RMK A01 T02280181  RH  075%=      5-min Rain = 0
KES1 161726Z 21008KT 23/18 A3001 RMK A01 T02290180  RH  074%=      5-min Rain = 0
KES1 161727Z 20011KT 23/18 A3001 RMK A01 T02310182  RH  074%=      5-min Rain = 0
KES1 161728Z 20011KT 23/18 A3001 RMK A01 T02330181  RH  072%=      5-min Rain = 0
KES1 161729Z 20010KT 24/18 A3001 RMK A01 T02350176  RH  069%=      5-min Rain = 0
KES1 161730Z 21009KT 24/18 A3001 RMK A01 T02370175  RH  068%=      5-min Rain = 0
KES1 161731Z 21010KT 24/18 A3001 RMK A01 T02390176  RH  068%=      5-min Rain = 0
KES1 161732Z 21009KT 24/17 A3001 RMK A01 T02400172  RH  066%=      5-min Rain = 0
KES1 161733Z 21008KT 24/18 A3001 RMK A01 T02400178  RH  068%=      5-min Rain = 0
KES1 161734Z 21008KT 24/18 A3001 RMK A01 T02420176  RH  067%=      5-min Rain = 0
KES1 161735Z 21012KT 24/17 A3001 RMK A01 T02420172  RH  065%=      5-min Rain = 0
KES1 161736Z 21009KT 24/17 A3001 RMK A01 T02420168  RH  063%=      5-min Rain = 0
KES1 161737Z 21011KT 24/17 A3001 RMK A01 T02420172  RH  065%=      5-min Rain = 0
KES1 161738Z 21010KT 24/17 A3002 RMK A01 T02420171  RH  064%=      5-min Rain = 0
KES1 161739Z 21007KT 24/17 A3002 RMK A01 T02420172  RH  065%=      5-min Rain = 0
KES1 161740Z 22006KT 24/17 A3002 RMK A01 T02420174  RH  066%=      5-min Rain = 0
KES1 161741Z 23007KT 24/18 A3002 RMK A01 T02430178  RH  067%=      5-min Rain = 0
KES1 161742Z 22007KT 24/18 A3002 RMK A01 T02440175  RH  066%=      5-min Rain = 0
KES1 161743Z 22005KT 25/18 A3002 RMK A01 T02450177  RH  066%=      5-min Rain = 0
KES1 161744Z 22006KT 25/17 A3002 RMK A01 T02450172  RH  064%=      5-min Rain = 0
KES1 161745Z 21003KT 25/17 A3002 RMK A01 T02450171  RH  063%=      5-min Rain = 0
KES1 161746Z 02000KT 25/17 A3002 RMK A01 T02450167  RH  062%=      5-min Rain = 0
KES1 161747Z 04001KT 25/17 A3002 RMK A01 T02460173  RH  064%=      5-min Rain = 0
KES1 161748Z 09001KT 25/17 A3002 RMK A01 T02470170  RH  062%=      5-min Rain = 0
KES1 161749Z 17001KT 25/17 A3002 RMK A01 T02480169  RH  062%=      5-min Rain = 0
KES1 161750Z 15001KT 25/17 A3002 RMK A01 T02490169  RH  061%=      5-min Rain = 0
KES1 161751Z 02004G10KT 25/17 A3001 RMK A01 T02490174  RH  063%=      5-min Rain = 0
KES1 161752Z 03009KT 25/18 A3002 RMK A01 T02490183  RH  067%=      5-min Rain = 0
KES1 161753Z 05008KT 25/19 A3002 RMK A01 T02450187  RH  070%=      5-min Rain = 0
KES1 161754Z 02007KT 24/19 A3002 RMK A01 T02430188  RH  071%=      5-min Rain = 0
KES1 161755Z 04006KT 24/19 A3001 RMK A01 T02420192  RH  074%=      5-min Rain = 0
KES1 161756Z 03008KT 24/20 A3001 RMK A01 T02410195  RH  076%=      5-min Rain = 0
KES1 161757Z 02006KT 24/19 A3001 RMK A01 T02420191  RH  073%=      5-min Rain = 0
KES1 161758Z 03007KT 24/19 A3001 RMK A01 T02420193  RH  074%=      5-min Rain = 0
KES1 161759Z 03006KT 24/19 A3001 RMK A01 T02430187  RH  071%=      5-min Rain = 0
KES1 161800Z 03006KT 24/19 A3001 RMK A01 T02430190  RH  072%=      5-min Rain = 0
KES1 161801Z 04006KT 24/19 A3001 RMK A01 T02440193  RH  073%=      5-min Rain = 0
KES1 161802Z 04006KT 24/20 A3001 RMK A01 T02440200  RH  076%=      5-min Rain = 0
KES1 161803Z 04005KT 25/19 A3001 RMK A01 T02460193  RH  073%=      5-min Rain = 0
KES1 161804Z 03005KT 24/19 A3001 RMK A01 T02440189  RH  071%=      5-min Rain = 0
KES1 161805Z 06006KT 24/19 A3001 RMK A01 T02430190  RH  072%=      5-min Rain = 0
KES1 161806Z 05006KT 24/19 A3001 RMK A01 T02410187  RH  072%=      5-min Rain = 0
KES1 161807Z 05005KT 24/19 A3001 RMK A01 T02400190  RH  073%=      5-min Rain = 0
KES1 161808Z 06007KT 24/19 A3001 RMK A01 T02400185  RH  071%=      5-min Rain = 0
KES1 161809Z 04006KT 24/19 A3001 RMK A01 T02390189  RH  073%=      5-min Rain = 0
KES1 161810Z 05006KT 24/18 A3001 RMK A01 T02400184  RH  071%=      5-min Rain = 0
KES1 161811Z 05004KT 24/19 A3001 RMK A01 T02400193  RH  075%=      5-min Rain = 0
KES1 161812Z 06006KT 24/19 A3001 RMK A01 T02420187  RH  071%=      5-min Rain = 0
KES1 161813Z 05005KT 24/19 A3001 RMK A01 T02440190  RH  072%=      5-min Rain = 0
KES1 161814Z 05007KT 25/19 A3001 RMK A01 T02450185  RH  069%=      5-min Rain = 0
KES1 161815Z 05007KT 25/18 A3001 RMK A01 T02450182  RH  068%=      5-min Rain = 0
KES1 161816Z 05007KT 25/18 A30 RMK A01 T02450181  RH  068%=      5-min Rain = 0
KES1 161817Z 06006KT 25/18 A30 RMK A01 T02450183  RH  068%=      5-min Rain = 0
KES1 161818Z 04005KT 25/19 A30 RMK A01 T02460187  RH  070%=      5-min Rain = 0
KES1 161819Z 03006KT 25/19 A30 RMK A01 T02480187  RH  069%=      5-min Rain = 0
KES1 161820Z 04006KT 25/19 A30 RMK A01 T02490190  RH  069%=      5-min Rain = 0
KES1 161821Z 05006KT 25/19 A30 RMK A01 T02500188  RH  068%=      5-min Rain = 0
KES1 161822Z 05006KT 25/19 A30 RMK A01 T02500188  RH  068%=      5-min Rain = 0
KES1 161823Z 04005KT 25/19 A30 RMK A01 T02500192  RH  070%=      5-min Rain = 0
KES1 161824Z 03007KT 25/19 A30 RMK A01 T02520191  RH  069%=      5-min Rain = 0
KES1 161825Z 04007KT 25/19 A30 RMK A01 T02520190  RH  068%=      5-min Rain = 0
KES1 161826Z 06007KT 25/19 A30 RMK A01 T02510186  RH  067%=      5-min Rain = 0
KES1 161827Z 05006KT 25/18 A30 RMK A01 T02490183  RH  067%=      5-min Rain = 0
KES1 161828Z 03006KT 25/19 A30 RMK A01 T02470186  RH  069%=      5-min Rain = 0
KES1 161829Z 04005KT 25/19 A30 RMK A01 T02480191  RH  071%=      5-min Rain = 0
KES1 161830Z 03005KT 25/19 A30 RMK A01 T02490185  RH  067%=      5-min Rain = 0
KES1 161831Z 03007KT 25/19 A30 RMK A01 T02480188  RH  069%=      5-min Rain = 0
KES1 161832Z 03007KT 25/19 A30 RMK A01 T02470187  RH  069%=      5-min Rain = 0
KES1 161833Z 05005KT 25/18 A30 RMK A01 T02460182  RH  068%=      5-min Rain = 0
KES1 161834Z 07004KT 24/18 A30 RMK A01 T02440181  RH  068%=      5-min Rain = 0
KES1 161835Z 04007KT 24/19 A30 RMK A01 T02430185  RH  070%=      5-min Rain = 0
KES1 161836Z 04006KT 24/18 A30 RMK A01 T02430182  RH  069%=      5-min Rain = 0
KES1 161837Z 05004KT 24/18 A30 RMK A01 T02440184  RH  069%=      5-min Rain = 0
KES1 161838Z 07003KT 24/19 A30 RMK A01 T02440185  RH  070%=      5-min Rain = 0
KES1 161839Z 05004KT 24/18 A30 RMK A01 T02440181  RH  068%=      5-min Rain = 0
KES1 161840Z 04006KT 25/19 A30 RMK A01 T02450187  RH  070%=      5-min Rain = 0
KES1 161841Z 05006KT 25/19 A30 RMK A01 T02460189  RH  070%=      5-min Rain = 0
KES1 161842Z 05007KT 25/19 A30 RMK A01 T02480185  RH  068%=      5-min Rain = 0
KES1 161843Z 06006KT 25/18 A30 RMK A01 T02480183  RH  067%=      5-min Rain = 0
KES1 161844Z 07005KT 25/18 A30 RMK A01 T02470182  RH  067%=      5-min Rain = 0
KES1 161845Z 05005KT 25/18 A2999 RMK A01 T02470182  RH  067%=      5-min Rain = 0
KES1 161846Z 05005KT 25/18 A2999 RMK A01 T02470184  RH  068%=      5-min Rain = 0
KES1 161847Z 06006KT 25/18 A2999 RMK A01 T02480182  RH  067%=      5-min Rain = 0
KES1 161848Z 08005KT 25/18 A2999 RMK A01 T02490180  RH  066%=      5-min Rain = 0
KES1 161849Z 05005KT 25/19 A2999 RMK A01 T02490185  RH  068%=      5-min Rain = 0
KES1 161850Z 06004KT 25/18 A2999 RMK A01 T02520184  RH  066%=      5-min Rain = 0
KES1 161851Z 08004KT 25/18 A2999 RMK A01 T02530181  RH  064%=      5-min Rain = 0
KES1 161852Z 09003KT 25/18 A2999 RMK A01 T02530178  RH  063%=      5-min Rain = 0
KES1 161853Z 06003KT 25/18 A2999 RMK A01 T02530178  RH  063%=      5-min Rain = 0
KES1 161854Z 06003KT 25/18 A2999 RMK A01 T02530180  RH  064%=      5-min Rain = 0
KES1 161855Z 07001KT 26/18 A2999 RMK A01 T02550178  RH  063%=      5-min Rain = 0
KES1 161856Z 07003KT 26/18 A2999 RMK A01 T02550180  RH  063%=      5-min Rain = 0
KES1 161857Z 05005KT 26/18 A2999 RMK A01 T02560178  RH  062%=      5-min Rain = 0
KES1 161858Z 03005KT 26/18 A2999 RMK A01 T02550179  RH  063%=      5-min Rain = 0
KES1 161859Z 03003KT 25/18 A2999 RMK A01 T02540178  RH  062%=      5-min Rain = 0
KES1 161900Z 04003KT 26/18 A2999 RMK A01 T02550179  RH  063%=      5-min Rain = 0
KES1 161901Z 03006KT 26/19 A2999 RMK A01 T02550186  RH  066%=      5-min Rain = 0
KES1 161902Z 04004KT 26/19 A2999 RMK A01 T02570189  RH  066%=      5-min Rain = 0
KES1 161903Z 07006KT 26/18 A2999 RMK A01 T02600183  RH  063%=      5-min Rain = 0
KES1 161904Z 05006KT 26/19 A2999 RMK A01 T02610186  RH  063%=      5-min Rain = 0
KES1 161905Z 05005KT 26/18 A2999 RMK A01 T02610177  RH  060%=      5-min Rain = 0
KES1 161906Z 02004KT 26/18 A2999 RMK A01 T02590176  RH  060%=      5-min Rain = 0
KES1 161907Z 01005KT 26/18 A2999 RMK A01 T02580181  RH  063%=      5-min Rain = 0
KES1 161908Z 04005KT 26/18 A2999 RMK A01 T02580182  RH  063%=      5-min Rain = 0
KES1 161909Z 06005KT 26/18 A2999 RMK A01 T02580180  RH  062%=      5-min Rain = 0
KES1 161910Z 05005KT 26/18 A2999 RMK A01 T02600176  RH  060%=      5-min Rain = 0
KES1 161911Z 07002KT 26/17 A2999 RMK A01 T02600171  RH  058%=      5-min Rain = 0
KES1 161912Z 11001KT 26/17 A2999 RMK A01 T02600170  RH  058%=      5-min Rain = 0
KES1 161913Z 07003KT 26/17 A2999 RMK A01 T02590170  RH  058%=      5-min Rain = 0
KES1 161914Z 04003KT 26/19 A2999 RMK A01 T02600186  RH  064%=      5-min Rain = 0
KES1 161915Z 04004KT 26/18 A2999 RMK A01 T02620181  RH  061%=      5-min Rain = 0
KES1 161916Z 04006KT 26/18 A2999 RMK A01 T02630183  RH  062%=      5-min Rain = 0
KES1 161917Z 04003KT 26/18 A2999 RMK A01 T02630175  RH  058%=      5-min Rain = 0
KES1 161918Z 06005KT 26/18 A2999 RMK A01 T02620177  RH  060%=      5-min Rain = 0
KES1 161919Z 08004G9KT 26/18 A2999 RMK A01 T02610177  RH  060%=      5-min Rain = 0
KES1 161920Z 09008KT 26/18 A2999 RMK A01 T02610178  RH  060%=      5-min Rain = 0
KES1 161921Z 09006KT 26/18 A2999 RMK A01 T02620177  RH  059%=      5-min Rain = 0
KES1 161922Z 09007KT 26/18 A2998 RMK A01 T02620179  RH  060%=      5-min Rain = 0
KES1 161923Z 10008KT 26/18 A2999 RMK A01 T02640178  RH  059%=      5-min Rain = 0
KES1 161924Z 10005KT 27/17 A2999 RMK A01 T02650174  RH  058%=      5-min Rain = 0
KES1 161925Z 14003KT 26/17 A2999 RMK A01 T02620172  RH  058%=      5-min Rain = 0
KES1 161926Z 13002KT 26/18 A2998 RMK A01 T02610176  RH  059%=      5-min Rain = 0
KES1 161927Z 15002KT 26/17 A2998 RMK A01 T02620174  RH  059%=      5-min Rain = 0
KES1 161928Z 18000KT 26/17 A2998 RMK A01 T02630168  RH  056%=      5-min Rain = 0
KES1 161929Z 05001KT 26/17 A2998 RMK A01 T02640174  RH  058%=      5-min Rain = 0
KES1 161930Z 05003KT 27/18 A2998 RMK A01 T02650181  RH  060%=      5-min Rain = 0
KES1 161931Z 05003KT 27/18 A2998 RMK A01 T02670176  RH  057%=      5-min Rain = 0
KES1 161932Z 03002KT 27/18 A2998 RMK A01 T02680175  RH  057%=      5-min Rain = 0
KES1 161933Z 12002KT 27/17 A2998 RMK A01 T02680174  RH  057%=      5-min Rain = 0
KES1 161934Z 09002KT 27/18 A2998 RMK A01 T02680178  RH  058%=      5-min Rain = 0
KES1 161935Z 06001KT 27/18 A2998 RMK A01 T02690177  RH  057%=      5-min Rain = 0
KES1 161936Z 04003KT 27/18 A2998 RMK A01 T02700183  RH  059%=      5-min Rain = 0
KES1 161937Z 05004KT 27/19 A2998 RMK A01 T02710185  RH  059%=      5-min Rain = 0
KES1 161938Z 06005KT 27/19 A2998 RMK A01 T02730186  RH  059%=      5-min Rain = 0
KES1 161939Z 07008KT 28/18 A2998 RMK A01 T02760184  RH  057%=      5-min Rain = 0
KES1 161940Z 06007KT 28/18 A2998 RMK A01 T02770182  RH  056%=      5-min Rain = 0
KES1 161941Z 06006KT 28/18 A2998 RMK A01 T02770179  RH  055%=      5-min Rain = 0
KES1 161942Z 09006KT 28/18 A2998 RMK A01 T02770176  RH  054%=      5-min Rain = 0
KES1 161943Z 10007KT 28/17 A2998 RMK A01 T02780169  RH  052%=      5-min Rain = 0
KES1 161944Z 10004KT 28/17 A2998 RMK A01 T02770168  RH  052%=      5-min Rain = 0
KES1 161945Z 09001KT 28/17 A2998 RMK A01 T02750168  RH  052%=      5-min Rain = 0
KES1 161946Z 35001KT 27/17 A2998 RMK A01 T02740167  RH  052%=      5-min Rain = 0
KES1 161947Z 34002KT 27/17 A2998 RMK A01 T02740166  RH  052%=      5-min Rain = 0
KES1 161948Z 06001KT 27/17 A2998 RMK A01 T02730170  RH  053%=      5-min Rain = 0
KES1 161949Z 15002KT 27/17 A2998 RMK A01 T02730174  RH  055%=      5-min Rain = 0
KES1 161950Z 11002KT 28/18 A2998 RMK A01 T02750175  RH  054%=      5-min Rain = 0
KES1 161951Z 09003KT 28/17 A2998 RMK A01 T02770171  RH  052%=      5-min Rain = 0
KES1 161952Z 06006KT 28/17 A2998 RMK A01 T02770170  RH  052%=      5-min Rain = 0
KES1 161953Z 07009KT 28/17 A2998 RMK A01 T02760174  RH  054%=      5-min Rain = 0
KES1 161954Z 06007KT 27/17 A2998 RMK A01 T02740172  RH  054%=      5-min Rain = 0
KES1 161955Z 06007KT 27/18 A2998 RMK A01 T02730177  RH  056%=      5-min Rain = 0
KES1 161956Z 06007KT 27/17 A2998 RMK A01 T02740173  RH  054%=      5-min Rain = 0
KES1 161957Z 04006KT 27/17 A2998 RMK A01 T02740173  RH  054%=      5-min Rain = 0
KES1 161958Z 06004KT 27/17 A2998 RMK A01 T02730173  RH  054%=      5-min Rain = 0
KES1 161959Z 08004KT 27/18 A2998 RMK A01 T02720175  RH  055%=      5-min Rain = 0
KES1 162000Z 08003KT 27/17 A2998 RMK A01 T02720174  RH  055%=      5-min Rain = 0
KES1 162001Z 05002KT 27/17 A2998 RMK A01 T02720171  RH  054%=      5-min Rain = 0
KES1 162002Z 13002KT 27/17 A2997 RMK A01 T02710173  RH  055%=      5-min Rain = 0
KES1 162003Z 09004KT 27/17 A2997 RMK A01 T02730170  RH  053%=      5-min Rain = 0
KES1 162004Z 09006KT 28/17 A2997 RMK A01 T02760166  RH  051%=      5-min Rain = 0
KES1 162005Z 10006KT 28/17 A2997 RMK A01 T02780169  RH  052%=      5-min Rain = 0
KES1 162006Z 10003KT 28/17 A2997 RMK A01 T02780168  RH  051%=      5-min Rain = 0
KES1 162007Z 08007KT 28/17 A2997 RMK A01 T02770173  RH  053%=      5-min Rain = 0
KES1 162008Z 08005KT 28/17 A2997 RMK A01 T02770171  RH  053%=      5-min Rain = 0
KES1 162009Z 04004KT 28/17 A2997 RMK A01 T02760171  RH  053%=      5-min Rain = 0
KES1 162010Z 05005KT 28/17 A2997 RMK A01 T02760174  RH  054%=      5-min Rain = 0
KES1 162011Z 02004KT 28/17 A2997 RMK A01 T02760174  RH  054%=      5-min Rain = 0
KES1 162012Z 04002KT 28/17 A2997 RMK A01 T02760173  RH  053%=      5-min Rain = 0
KES1 162013Z 07003KT 28/18 A2997 RMK A01 T02760175  RH  054%=      5-min Rain = 0
KES1 162014Z 05003KT 28/17 A2997 RMK A01 T02780173  RH  053%=      5-min Rain = 0
KES1 162015Z 04002KT 28/17 A2997 RMK A01 T02790168  RH  051%=      5-min Rain = 0
KES1 162016Z 07004KT 28/17 A2997 RMK A01 T02790168  RH  051%=      5-min Rain = 0
KES1 162017Z 10005KT 28/17 A2997 RMK A01 T02790170  RH  051%=      5-min Rain = 0
KES1 162018Z 09006KT 28/17 A2997 RMK A01 T02800166  RH  050%=      5-min Rain = 0
KES1 162019Z 07006KT 28/17 A2997 RMK A01 T02790168  RH  051%=      5-min Rain = 0
KES1 162020Z 05003KT 28/17 A2997 RMK A01 T02790165  RH  050%=      5-min Rain = 0
KES1 162021Z 35002KT 28/16 A2997 RMK A01 T02780159  RH  048%=      5-min Rain = 0
KES1 162022Z 02002KT 28/16 A2997 RMK A01 T02760164  RH  051%=      5-min Rain = 0
KES1 162023Z 05003KT 28/16 A2997 RMK A01 T02750163  RH  050%=      5-min Rain = 0
KES1 162024Z 02002KT 28/16 A2997 RMK A01 T02770164  RH  050%=      5-min Rain = 0
KES1 162025Z 03003KT 28/17 A2997 RMK A01 T02780171  RH  052%=      5-min Rain = 0
KES1 162026Z 05004KT 28/17 A2997 RMK A01 T02800170  RH  051%=      5-min Rain = 0
KES1 162027Z 05003KT 28/17 A2997 RMK A01 T02820168  RH  050%=      5-min Rain = 0
KES1 162028Z 08006KT 28/17 A2997 RMK A01 T02830167  RH  049%=      5-min Rain = 0
KES1 162029Z 08005KT 28/17 A2997 RMK A01 T02820167  RH  050%=      5-min Rain = 0
KES1 162030Z 07004KT 28/16 A2997 RMK A01 T02810162  RH  048%=      5-min Rain = 0
KES1 162031Z 08005KT 28/17 A2997 RMK A01 T02790166  RH  050%=      5-min Rain = 0
KES1 162032Z 06006KT 28/17 A2997 RMK A01 T02800168  RH  050%=      5-min Rain = 0
KES1 162033Z 11007KT 28/17 A2997 RMK A01 T02830168  RH  050%=      5-min Rain = 0
KES1 162034Z 10007KT 28/16 A2997 RMK A01 T02830159  RH  047%=      5-min Rain = 0
KES1 162035Z 11004KT 28/16 A2997 RMK A01 T02810164  RH  049%=      5-min Rain = 0
KES1 162036Z 09004KT 28/16 A2997 RMK A01 T02810163  RH  049%=      5-min Rain = 0
KES1 162037Z 08005KT 28/16 A2997 RMK A01 T02820159  RH  047%=      5-min Rain = 0
KES1 162038Z 10005KT 28/16 A2997 RMK A01 T02820159  RH  047%=      5-min Rain = 0
KES1 162039Z 09005KT 28/16 A2997 RMK A01 T02810155  RH  046%=      5-min Rain = 0
KES1 162040Z 12004KT 28/16 A2997 RMK A01 T02800158  RH  048%=      5-min Rain = 0
KES1 162041Z 13001KT 28/15 A2997 RMK A01 T02800154  RH  046%=      5-min Rain = 0
KES1 162042Z 18004KT 28/16 A2997 RMK A01 T02800157  RH  047%=      5-min Rain = 0
KES1 162043Z 19003KT 28/15 A2997 RMK A01 T02800154  RH  046%=      5-min Rain = 0
KES1 162044Z 23002KT 28/16 A2997 RMK A01 T02800159  RH  048%=      5-min Rain = 0
KES1 162045Z 24003KT 28/16 A2997 RMK A01 T02810163  RH  049%=      5-min Rain = 0
KES1 162046Z 21003KT 28/17 A2997 RMK A01 T02830166  RH  049%=      5-min Rain = 0
KES1 162047Z 20004KT 29/17 A2997 RMK A01 T02860169  RH  049%=      5-min Rain = 0
KES1 162048Z 20004KT 29/16 A2997 RMK A01 T02880159  RH  046%=      5-min Rain = 0
KES1 162049Z 20003KT 29/16 A2997 RMK A01 T02870162  RH  047%=      5-min Rain = 0
KES1 162050Z 20003KT 29/16 A2997 RMK A01 T02870160  RH  046%=      5-min Rain = 0
KES1 162051Z 20003KT 29/16 A2997 RMK A01 T02870163  RH  047%=      5-min Rain = 0
KES1 162052Z 20003KT 29/16 A2997 RMK A01 T02870164  RH  047%=      5-min Rain = 0
KES1 162053Z 19004KT 29/16 A2997 RMK A01 T02870158  RH  045%=      5-min Rain = 0
KES1 162054Z 15003KT 29/15 A2997 RMK A01 T02880151  RH  044%=      5-min Rain = 0
KES1 162055Z 15002KT 29/14 A2997 RMK A01 T02870143  RH  041%=      5-min Rain = 0
KES1 162056Z 19001KT 29/15 A2997 RMK A01 T02870153  RH  044%=      5-min Rain = 0
KES1 162057Z 21001KT 29/15 A2996 RMK A01 T02870151  RH  043%=      5-min Rain = 0
KES1 162058Z 15001KT 29/16 A2996 RMK A01 T02880155  RH  044%=      5-min Rain = 0
KES1 162059Z 13001KT 29/15 A2996 RMK A01 T02890151  RH  043%=      5-min Rain = 0
KES1 162100Z 14001KT 29/15 A2996 RMK A01 T02900147  RH  042%=      5-min Rain = 0
KES1 162101Z 16001KT 29/15 A2996 RMK A01 T02910146  RH  041%=      5-min Rain = 0
KES1 162102Z 17002KT 29/14 A2996 RMK A01 T02920144  RH  041%=      5-min Rain = 0
KES1 162103Z 11003KT 29/15 A2996 RMK A01 T02920146  RH  041%=      5-min Rain = 0
KES1 162104Z 09004KT 29/16 A2996 RMK A01 T02910157  RH  044%=      5-min Rain = 0
KES1 162105Z 09006KT 29/16 A2996 RMK A01 T02910156  RH  044%=      5-min Rain = 0
KES1 162106Z 11006KT 29/15 A2996 RMK A01 T02890148  RH  042%=      5-min Rain = 0
KES1 162107Z 12005KT 29/15 A2996 RMK A01 T02870151  RH  043%=      5-min Rain = 0
KES1 162108Z 11004KT 29/15 A2996 RMK A01 T02870150  RH  043%=      5-min Rain = 0
KES1 162109Z 09002KT 29/15 A2996 RMK A01 T02860150  RH  043%=      5-min Rain = 0
KES1 162110Z 09004KT 29/15 A2996 RMK A01 T02860151  RH  044%=      5-min Rain = 0
KES1 162111Z 11005KT 29/15 A2996 RMK A01 T02870150  RH  043%=      5-min Rain = 0
KES1 162112Z 09007KT 29/16 A2996 RMK A01 T02880156  RH  045%=      5-min Rain = 0
KES1 162113Z 10008KT 29/15 A2996 RMK A01 T02890147  RH  042%=      5-min Rain = 0
KES1 162114Z 11008KT 29/15 A2996 RMK A01 T02880154  RH  044%=      5-min Rain = 0
KES1 162115Z 12005KT 29/15 A2996 RMK A01 T02890151  RH  043%=      5-min Rain = 0
KES1 162116Z 09005KT 29/15 A2996 RMK A01 T02890154  RH  044%=      5-min Rain = 0
KES1 162117Z 09006KT 29/15 A2996 RMK A01 T02900149  RH  042%=      5-min Rain = 0
KES1 162118Z 10006KT 29/15 A2996 RMK A01 T02900145  RH  041%=      5-min Rain = 0
KES1 162119Z 11005KT 29/15 A2996 RMK A01 T02890146  RH  042%=      5-min Rain = 0
KES1 162120Z 12005KT 29/15 A2996 RMK A01 T02880146  RH  042%=      5-min Rain = 0
KES1 162121Z 12004KT 29/15 A2996 RMK A01 T02880148  RH  042%=      5-min Rain = 0
KES1 162122Z 12004KT 29/15 A2996 RMK A01 T02880149  RH  043%=      5-min Rain = 0
KES1 162123Z 08004KT 29/15 A2996 RMK A01 T02880149  RH  043%=      5-min Rain = 0
KES1 162124Z 09003KT 29/15 A2996 RMK A01 T02890146  RH  042%=      5-min Rain = 0
KES1 162125Z 09003KT 29/14 A2996 RMK A01 T02890143  RH  041%=      5-min Rain = 0
KES1 162126Z 10001KT 29/14 A2996 RMK A01 T02890144  RH  041%=      5-min Rain = 0
KES1 162127Z 28001KT 29/15 A2996 RMK A01 T02880145  RH  042%=      5-min Rain = 0
KES1 162128Z 29000KT 29/14 A2996 RMK A01 T02890141  RH  040%=      5-min Rain = 0
KES1 162129Z 04002KT 29/15 A2996 RMK A01 T02900151  RH  043%=      5-min Rain = 0
KES1 162130Z 04004KT 29/15 A2995 RMK A01 T02930153  RH  043%=      5-min Rain = 0
KES1 162131Z 03002KT 29/15 A2995 RMK A01 T02930148  RH  041%=      5-min Rain = 0
KES1 162132Z 35001KT 29/14 A2995 RMK A01 T02920138  RH  039%=      5-min Rain = 0
KES1 162133Z 04002KT 29/14 A2995 RMK A01 T02910143  RH  040%=      5-min Rain = 0
KES1 162134Z 09005KT 29/15 A2995 RMK A01 T02910147  RH  041%=      5-min Rain = 0
KES1 162135Z 06004KT 29/14 A2995 RMK A01 T02920143  RH  040%=      5-min Rain = 0
KES1 162136Z 05004KT 29/14 A2995 RMK A01 T02920143  RH  040%=      5-min Rain = 0
KES1 162137Z 06003KT 29/14 A2995 RMK A01 T02910140  RH  040%=      5-min Rain = 0
KES1 162138Z 03002KT 29/14 A2995 RMK A01 T02900141  RH  040%=      5-min Rain = 0
KES1 162139Z 05001KT 29/14 A2995 RMK A01 T02900141  RH  040%=      5-min Rain = 0
KES1 162140Z 05004KT 29/15 A2995 RMK A01 T02900146  RH  041%=      5-min Rain = 0
KES1 162141Z 04002KT 29/14 A2995 RMK A01 T02920139  RH  039%=      5-min Rain = 0
KES1 162142Z 18000KT 29/14 A2995 RMK A01 T02920135  RH  038%=      5-min Rain = 0
KES1 162143Z 09002KT 29/14 A2995 RMK A01 T02930141  RH  040%=      5-min Rain = 0
KES1 162144Z 10003KT 29/14 A2995 RMK A01 T02930138  RH  039%=      5-min Rain = 0
KES1 162145Z 09001KT 29/13 A2995 RMK A01 T02940131  RH  037%=      5-min Rain = 0
KES1 162146Z 04003KT 29/14 A2995 RMK A01 T02930140  RH  039%=      5-min Rain = 0
KES1 162147Z 03004KT 29/13 A2995 RMK A01 T02940134  RH  038%=      5-min Rain = 0
KES1 162148Z 05003KT 30/14 A2995 RMK A01 T02950137  RH  038%=      5-min Rain = 0
KES1 162149Z 08003KT 30/14 A2995 RMK A01 T02960135  RH  037%=      5-min Rain = 0
KES1 162150Z 08002KT 30/13 A2995 RMK A01 T02960131  RH  036%=      5-min Rain = 0
KES1 162151Z 10002KT 30/14 A2995 RMK A01 T02950143  RH  039%=      5-min Rain = 0
KES1 162152Z 09002KT 30/15 A2995 RMK A01 T02950148  RH  041%=      5-min Rain = 0
KES1 162153Z 07005KT 30/14 A2995 RMK A01 T02970144  RH  039%=      5-min Rain = 0
KES1 162154Z 09006KT 30/14 A2995 RMK A01 T02980139  RH  038%=      5-min Rain = 0
KES1 162155Z 09006KT 30/14 A2995 RMK A01 T02960139  RH  038%=      5-min Rain = 0
KES1 162156Z 07004KT 30/14 A2995 RMK A01 T02960141  RH  039%=      5-min Rain = 0
KES1 162157Z 08003KT 30/13 A2995 RMK A01 T02950131  RH  036%=      5-min Rain = 0
KES1 162158Z 12002KT 29/13 A2995 RMK A01 T02940130  RH  037%=      5-min Rain = 0
KES1 162159Z 06002KT 29/14 A2995 RMK A01 T02930140  RH  039%=      5-min Rain = 0
KES1 162200Z 05001KT 29/14 A2995 RMK A01 T02940143  RH  040%=      5-min Rain = 0
KES1 162201Z 16002KT 30/15 A2995 RMK A01 T02960149  RH  041%=      5-min Rain = 0
KES1 162202Z 10002KT 30/14 A2995 RMK A01 T02980144  RH  039%=      5-min Rain = 0
KES1 162203Z 04003KT 30/14 A2995 RMK A01 T02990140  RH  038%=      5-min Rain = 0
KES1 162204Z 04001KT 30/14 A2995 RMK A01 T02990136  RH  037%=      5-min Rain = 0
KES1 162205Z 03002KT 30/13 A2994 RMK A01 T02980131  RH  036%=      5-min Rain = 0
KES1 162206Z 09000KT 30/12 A2994 RMK A01 T02980123  RH  034%=      5-min Rain = 0
KES1 162207Z 14000KT 30/13 A2994 RMK A01 T02980125  RH  035%=      5-min Rain = 0
KES1 162208Z 11004KT 30/13 A2994 RMK A01 T02970133  RH  037%=      5-min Rain = 0
KES1 162209Z 10005KT 30/14 A2994 RMK A01 T02970139  RH  038%=      5-min Rain = 0
KES1 162210Z 07005KT 30/13 A2994 RMK A01 T02980134  RH  037%=      5-min Rain = 0
KES1 162211Z 09005KT 30/14 A2994 RMK A01 T02970135  RH  037%=      5-min Rain = 0
KES1 162212Z 13005KT 30/14 A2994 RMK A01 T02960138  RH  038%=      5-min Rain = 0
KES1 162213Z 09006KT 30/14 A2994 RMK A01 T02960136  RH  037%=      5-min Rain = 0
KES1 162214Z 07003KT 30/13 A2994 RMK A01 T02950134  RH  037%=      5-min Rain = 0
KES1 162215Z 10001KT 29/14 A2994 RMK A01 T02940137  RH  038%=      5-min Rain = 0
KES1 162216Z 22001KT 29/14 A2994 RMK A01 T02940140  RH  039%=      5-min Rain = 0
KES1 162217Z 34001KT 30/15 A2994 RMK A01 T02950145  RH  040%=      5-min Rain = 0
KES1 162218Z 02003KT 30/14 A2994 RMK A01 T02970143  RH  039%=      5-min Rain = 0
KES1 162219Z 04003KT 30/14 A2994 RMK A01 T02970144  RH  039%=      5-min Rain = 0
KES1 162220Z 05006KT 30/15 A2994 RMK A01 T02970150  RH  041%=      5-min Rain = 0
KES1 162221Z 06006KT 30/15 A2994 RMK A01 T02970145  RH  040%=      5-min Rain = 0
KES1 162222Z 07008KT 30/15 A2994 RMK A01 T02960146  RH  040%=      5-min Rain = 0
KES1 162223Z 12009KT 30/14 A2994 RMK A01 T02960144  RH  040%=      5-min Rain = 0
KES1 162224Z 13006KT 30/15 A2994 RMK A01 T02960146  RH  040%=      5-min Rain = 0
KES1 162225Z 13006KT 30/15 A2994 RMK A01 T02950151  RH  041%=      5-min Rain = 0
KES1 162226Z 12006KT 30/15 A2994 RMK A01 T02970145  RH  040%=      5-min Rain = 0
KES1 162227Z 11005KT 30/14 A2994 RMK A01 T02960140  RH  038%=      5-min Rain = 0
KES1 162228Z 10006KT 30/14 A2994 RMK A01 T02950141  RH  039%=      5-min Rain = 0
KES1 162229Z 09004KT 29/14 A2994 RMK A01 T02940141  RH  039%=      5-min Rain = 0
KES1 162230Z 10007KT 29/14 A2994 RMK A01 T02940142  RH  039%=      5-min Rain = 0
KES1 162231Z 10004KT 29/14 A2994 RMK A01 T02940139  RH  039%=      5-min Rain = 0
KES1 162232Z 11003KT 29/14 A2993 RMK A01 T02940140  RH  039%=      5-min Rain = 0
KES1 162233Z 11004KT 29/14 A2993 RMK A01 T02940139  RH  039%=      5-min Rain = 0
KES1 162234Z 09003KT 29/14 A2993 RMK A01 T02940135  RH  038%=      5-min Rain = 0
KES1 162235Z 09001KT 29/14 A2993 RMK A01 T02930138  RH  039%=      5-min Rain = 0
KES1 162236Z 08001KT 29/14 A2993 RMK A01 T02930143  RH  040%=      5-min Rain = 0
KES1 162237Z 26000KT 29/14 A2993 RMK A01 T02940143  RH  040%=      5-min Rain = 0
KES1 162238Z 26001KT 30/14 A2993 RMK A01 T02950141  RH  039%=      5-min Rain = 0
KES1 162239Z 35000KT 30/14 A2993 RMK A01 T02970139  RH  038%=      5-min Rain = 0
KES1 162240Z 05003KT 30/14 A2993 RMK A01 T02980143  RH  039%=      5-min Rain = 0
KES1 162241Z 04001KT 30/14 A2993 RMK A01 T02980138  RH  037%=      5-min Rain = 0
KES1 162242Z 08003KT 30/14 A2993 RMK A01 T02980141  RH  039%=      5-min Rain = 0
KES1 162243Z 08005KT 30/14 A2993 RMK A01 T02970143  RH  039%=      5-min Rain = 0
KES1 162244Z 09003KT 30/15 A2993 RMK A01 T02970146  RH  040%=      5-min Rain = 0
KES1 162245Z 12004KT 30/14 A2993 RMK A01 T02980144  RH  039%=      5-min Rain = 0
KES1 162246Z 11004KT 30/14 A2993 RMK A01 T02980139  RH  038%=      5-min Rain = 0
KES1 162247Z 10004KT 30/15 A2993 RMK A01 T02980145  RH  039%=      5-min Rain = 0
KES1 162248Z 09004KT 30/14 A2993 RMK A01 T02970142  RH  039%=      5-min Rain = 0
KES1 162249Z 11005KT 30/14 A2993 RMK A01 T02970143  RH  039%=      5-min Rain = 0
KES1 162250Z 12004KT 30/15 A2993 RMK A01 T02970146  RH  040%=      5-min Rain = 0
KES1 162251Z 11003KT 30/14 A2993 RMK A01 T02970143  RH  039%=      5-min Rain = 0
KES1 162252Z 09004KT 30/15 A2993 RMK A01 T02960147  RH  040%=      5-min Rain = 0
KES1 162253Z 09004KT 30/14 A2993 RMK A01 T02960141  RH  039%=      5-min Rain = 0
KES1 162254Z 09007KT 30/14 A2993 RMK A01 T02960142  RH  039%=      5-min Rain = 0
KES1 162255Z 09007KT 30/14 A2993 RMK A01 T02960138  RH  038%=      5-min Rain = 0
KES1 162256Z 09006KT 30/14 A2993 RMK A01 T02960137  RH  038%=      5-min Rain = 0
KES1 162257Z 09005KT 30/14 A2993 RMK A01 T02960143  RH  039%=      5-min Rain = 0
KES1 162258Z 09005KT 30/15 A2993 RMK A01 T02960145  RH  040%=      5-min Rain = 0
KES1 162259Z 11004KT 30/14 A2993 RMK A01 T02980144  RH  039%=      5-min Rain = 0
KES1 162300Z 10007KT 30/14 A2993 RMK A01 T02980143  RH  039%=      5-min Rain = 0
KES1 162301Z 09004KT 30/14 A2993 RMK A01 T02980139  RH  038%=      5-min Rain = 0
KES1 162302Z 09003KT 30/14 A2993 RMK A01 T02980142  RH  039%=      5-min Rain = 0
KES1 162303Z 09003KT 30/14 A2993 RMK A01 T02980137  RH  038%=      5-min Rain = 0
KES1 162304Z 10005KT 30/14 A2993 RMK A01 T02970143  RH  039%=      5-min Rain = 0
KES1 162305Z 10006KT 30/14 A2992 RMK A01 T02970141  RH  038%=      5-min Rain = 0
KES1 162306Z 13004KT 30/14 A2993 RMK A01 T02970144  RH  039%=      5-min Rain = 0
KES1 162307Z 09005KT 30/14 A2992 RMK A01 T02970142  RH  039%=      5-min Rain = 0
KES1 162308Z 10005KT 30/14 A2992 RMK A01 T02980136  RH  037%=      5-min Rain = 0
KES1 162309Z 11005KT 30/13 A2992 RMK A01 T02970134  RH  037%=      5-min Rain = 0
KES1 162310Z 12005KT 30/14 A2992 RMK A01 T02970140  RH  038%=      5-min Rain = 0
KES1 162311Z 11005KT 30/13 A2992 RMK A01 T02960134  RH  037%=      5-min Rain = 0
KES1 162312Z 10004KT 30/13 A2992 RMK A01 T02970131  RH  036%=      5-min Rain = 0
KES1 162313Z 11006KT 30/13 A2992 RMK A01 T02970134  RH  037%=      5-min Rain = 0
KES1 162314Z 10003KT 30/13 A2992 RMK A01 T02970131  RH  036%=      5-min Rain = 0
KES1 162315Z 12002KT 30/13 A2992 RMK A01 T02970127  RH  035%=      5-min Rain = 0
KES1 162316Z 12002KT 30/13 A2992 RMK A01 T02960130  RH  036%=      5-min Rain = 0
KES1 162317Z 13004KT 30/14 A2992 RMK A01 T02960137  RH  038%=      5-min Rain = 0
KES1 162318Z 11004KT 30/14 A2992 RMK A01 T02970139  RH  038%=      5-min Rain = 0
KES1 162319Z 12005KT 30/14 A2992 RMK A01 T02980139  RH  038%=      5-min Rain = 0
KES1 162320Z 13005KT 30/14 A2992 RMK A01 T02980143  RH  039%=      5-min Rain = 0
KES1 162321Z 13006KT 30/14 A2992 RMK A01 T02980141  RH  038%=      5-min Rain = 0
KES1 162322Z 12006KT 30/14 A2992 RMK A01 T02980137  RH  037%=      5-min Rain = 0
KES1 162323Z 13007KT 30/14 A2992 RMK A01 T02970137  RH  038%=      5-min Rain = 0
KES1 162324Z 13005KT 30/14 A2992 RMK A01 T02970140  RH  038%=      5-min Rain = 0
KES1 162325Z 12003KT 30/14 A2992 RMK A01 T02970139  RH  038%=      5-min Rain = 0
KES1 162326Z 12005KT 30/14 A2992 RMK A01 T02970136  RH  037%=      5-min Rain = 0
KES1 162327Z 10006KT 30/13 A2992 RMK A01 T02970134  RH  037%=      5-min Rain = 0
KES1 162328Z 10006KT 30/14 A2992 RMK A01 T02960136  RH  037%=      5-min Rain = 0
KES1 162329Z 10005KT 30/13 A2992 RMK A01 T02960132  RH  037%=      5-min Rain = 0
KES1 162330Z 10006KT 30/14 A2992 RMK A01 T02960136  RH  038%=      5-min Rain = 0
KES1 162331Z 12005KT 30/13 A2992 RMK A01 T02960134  RH  037%=      5-min Rain = 0
KES1 162332Z 11004KT 30/13 A2992 RMK A01 T02960131  RH  036%=      5-min Rain = 0
KES1 162333Z 11004KT 30/13 A2992 RMK A01 T02960133  RH  037%=      5-min Rain = 0
KES1 162334Z 13004KT 30/14 A2992 RMK A01 T02960137  RH  038%=      5-min Rain = 0
KES1 162335Z 12005KT 30/14 A2992 RMK A01 T02970142  RH  039%=      5-min Rain = 0
KES1 162336Z 12006KT 30/15 A2992 RMK A01 T02980145  RH  039%=      5-min Rain = 0
KES1 162337Z 12006KT 30/14 A2992 RMK A01 T02980140  RH  038%=      5-min Rain = 0
KES1 162338Z 12007KT 30/14 A2992 RMK A01 T02980138  RH  038%=      5-min Rain = 0
KES1 162339Z 13006KT 30/14 A2992 RMK A01 T02970138  RH  038%=      5-min Rain = 0
KES1 162340Z 13005KT 30/14 A2992 RMK A01 T02970139  RH  038%=      5-min Rain = 0
KES1 162341Z 12005KT 30/13 A2992 RMK A01 T02970131  RH  036%=      5-min Rain = 0
KES1 162342Z 12005KT 30/13 A2992 RMK A01 T02960132  RH  037%=      5-min Rain = 0
KES1 162343Z 11005KT 30/13 A2992 RMK A01 T02960125  RH  035%=      5-min Rain = 0
KES1 162344Z 11005KT 30/13 A2992 RMK A01 T02960130  RH  036%=      5-min Rain = 0
KES1 162345Z 11007KT 30/14 A2992 RMK A01 T02950137  RH  038%=      5-min Rain = 0
KES1 162346Z 10007KT 30/14 A2992 RMK A01 T02950138  RH  038%=      5-min Rain = 0
KES1 162347Z 10007KT 30/14 A2991 RMK A01 T02950137  RH  038%=      5-min Rain = 0
KES1 162348Z 09007KT 29/14 A2991 RMK A01 T02940136  RH  038%=      5-min Rain = 0
KES1 162349Z 10008KT 29/14 A2991 RMK A01 T02940136  RH  038%=      5-min Rain = 0
KES1 162350Z 10006KT 29/14 A2991 RMK A01 T02940138  RH  039%=      5-min Rain = 0
KES1 162351Z 10008KT 29/14 A2991 RMK A01 T02940136  RH  038%=      5-min Rain = 0
KES1 162352Z 10009KT 29/13 A2991 RMK A01 T02930134  RH  038%=      5-min Rain = 0
KES1 162353Z 10009KT 29/13 A2991 RMK A01 T02920134  RH  038%=      5-min Rain = 0
KES1 162354Z 10008KT 29/13 A2991 RMK A01 T02920134  RH  038%=      5-min Rain = 0
KES1 162355Z 10007KT 29/13 A2991 RMK A01 T02920134  RH  038%=      5-min Rain = 0
KES1 162356Z 08007KT 29/14 A2991 RMK A01 T02910139  RH  039%=      5-min Rain = 0
KES1 162357Z 08006KT 29/14 A2991 RMK A01 T02910137  RH  039%=      5-min Rain = 0
KES1 162358Z 09008KT 29/14 A2991 RMK A01 T02910143  RH  040%=      5-min Rain = 0
KES1 162359Z 09009KT 29/14 A2991 RMK A01 T02920138  RH  039%=      5-min Rain = 0
KES1 170000Z 09009KT 29/14 A2991 RMK A01 T02910138  RH  039%=      5-min Rain = 0
KES1 170001Z 09008KT 29/14 A2991 RMK A01 T02910140  RH  040%=      5-min Rain = 0
KES1 170002Z 09009KT 29/14 A2991 RMK A01 T02910141  RH  040%=      5-min Rain = 0
KES1 170003Z 09008KT 29/14 A2991 RMK A01 T02910142  RH  040%=      5-min Rain = 0
KES1 170004Z 08009KT 29/14 A2991 RMK A01 T02900141  RH  040%=      5-min Rain = 0
KES1 170005Z 09008KT 29/14 A2991 RMK A01 T02900144  RH  041%=      5-min Rain = 0
KES1 170006Z 10008KT 29/15 A2991 RMK A01 T02900147  RH  042%=      5-min Rain = 0
KES1 170007Z 11009KT 29/15 A2991 RMK A01 T02900147  RH  042%=      5-min Rain = 0
KES1 170008Z 10009KT 29/15 A2991 RMK A01 T02900149  RH  042%=      5-min Rain = 0
KES1 170009Z 09010KT 29/15 A2991 RMK A01 T02880151  RH  043%=      5-min Rain = 0
KES1 170010Z 10009KT 29/15 A2991 RMK A01 T02870153  RH  044%=      5-min Rain = 0
KES1 170011Z 09008KT 29/16 A2991 RMK A01 T02860155  RH  045%=      5-min Rain = 0
KES1 170012Z 10008KT 29/16 A2991 RMK A01 T02860156  RH  045%=      5-min Rain = 0
KES1 170013Z 08009KT 29/16 A2991 RMK A01 T02850156  RH  045%=      5-min Rain = 0
KES1 170014Z 09008KT 29/15 A2991 RMK A01 T02850154  RH  045%=      5-min Rain = 0
KES1 170015Z 09010KT 29/15 A2991 RMK A01 T02850153  RH  045%=      5-min Rain = 0
KES1 170016Z 09009KT 29/15 A2991 RMK A01 T02850151  RH  044%=      5-min Rain = 0
KES1 170017Z 09009KT 28/15 A2991 RMK A01 T02840153  RH  045%=      5-min Rain = 0
KES1 170018Z 09008KT 28/15 A2991 RMK A01 T02840153  RH  045%=      5-min Rain = 0
KES1 170019Z 09009KT 28/15 A2991 RMK A01 T02840153  RH  045%=      5-min Rain = 0
KES1 170020Z 09009KT 28/15 A2991 RMK A01 T02840151  RH  044%=      5-min Rain = 0
KES1 170021Z 09008KT 28/15 A2991 RMK A01 T02830153  RH  045%=      5-min Rain = 0
KES1 170022Z 08009KT 28/15 A2991 RMK A01 T02830154  RH  045%=      5-min Rain = 0
KES1 170023Z 09011KT 28/15 A2991 RMK A01 T02830152  RH  045%=      5-min Rain = 0
KES1 170024Z 09009KT 28/15 A2991 RMK A01 T02820150  RH  044%=      5-min Rain = 0
KES1 170025Z 08010KT 28/15 A2991 RMK A01 T02820150  RH  045%=      5-min Rain = 0
KES1 170026Z 10007KT 28/15 A2991 RMK A01 T02820154  RH  046%=      5-min Rain = 0
KES1 170027Z 10010KT 28/15 A2991 RMK A01 T02810154  RH  046%=      5-min Rain = 0
KES1 170028Z 09009KT 28/15 A2991 RMK A01 T02810152  RH  045%=      5-min Rain = 0
KES1 170029Z 09009KT 28/15 A2991 RMK A01 T02810153  RH  046%=      5-min Rain = 0
KES1 170030Z 09006KT 28/16 A2991 RMK A01 T02800156  RH  047%=      5-min Rain = 0
KES1 170031Z 10007KT 28/16 A2991 RMK A01 T02790156  RH  047%=      5-min Rain = 0
KES1 170032Z 10010KT 28/15 A2991 RMK A01 T02790152  RH  046%=      5-min Rain = 0
KES1 170033Z 09009KT 28/15 A2991 RMK A01 T02790150  RH  045%=      5-min Rain = 0
KES1 170034Z 09008KT 28/15 A2991 RMK A01 T02790150  RH  045%=      5-min Rain = 0
KES1 170035Z 09008KT 28/15 A2991 RMK A01 T02790153  RH  046%=      5-min Rain = 0
KES1 170036Z 09008KT 28/15 A2991 RMK A01 T02790150  RH  046%=      5-min Rain = 0
KES1 170037Z 10009KT 28/15 A2991 RMK A01 T02790152  RH  046%=      5-min Rain = 0
KES1 170038Z 10008KT 28/15 A2991 RMK A01 T02780152  RH  046%=      5-min Rain = 0
KES1 170039Z 10007KT 28/15 A2991 RMK A01 T02780153  RH  047%=      5-min Rain = 0
KES1 170040Z 10007KT 28/16 A2991 RMK A01 T02770155  RH  047%=      5-min Rain = 0
KES1 170041Z 10008KT 28/15 A2991 RMK A01 T02770154  RH  047%=      5-min Rain = 0
KES1 170042Z 10008KT 28/15 A2991 RMK A01 T02760153  RH  047%=      5-min Rain = 0
KES1 170043Z 10008KT 28/15 A2991 RMK A01 T02770154  RH  047%=      5-min Rain = 0
KES1 170044Z 10010KT 28/15 A2991 RMK A01 T02760154  RH  047%=      5-min Rain = 0
KES1 170045Z 09009KT 28/16 A2991 RMK A01 T02760156  RH  048%=      5-min Rain = 0
KES1 170046Z 09010KT 28/16 A2991 RMK A01 T02750155  RH  048%=      5-min Rain = 0
KES1 170047Z 09010KT 28/16 A2991 RMK A01 T02750156  RH  048%=      5-min Rain = 0
KES1 170048Z 09010KT 27/16 A2991 RMK A01 T02740155  RH  048%=      5-min Rain = 0
KES1 170049Z 09010KT 27/15 A2991 RMK A01 T02740154  RH  048%=      5-min Rain = 0
KES1 170050Z 10010KT 27/15 A2991 RMK A01 T02740154  RH  048%=      5-min Rain = 0
KES1 170051Z 10009KT 27/15 A2991 RMK A01 T02740153  RH  048%=      5-min Rain = 0
KES1 170052Z 10008KT 27/15 A2991 RMK A01 T02730154  RH  048%=      5-min Rain = 0
KES1 170053Z 09007KT 27/16 A2991 RMK A01 T02720156  RH  049%=      5-min Rain = 0
KES1 170054Z 10008KT 27/16 A2991 RMK A01 T02710155  RH  049%=      5-min Rain = 0
KES1 170055Z 10008KT 27/16 A2991 RMK A01 T02710155  RH  049%=      5-min Rain = 0
KES1 170056Z 09008KT 27/15 A2991 RMK A01 T02710154  RH  049%=      5-min Rain = 0
KES1 170057Z 09008KT 27/15 A2991 RMK A01 T02710154  RH  049%=      5-min Rain = 0
KES1 170058Z 09007KT 27/16 A2991 RMK A01 T02710155  RH  049%=      5-min Rain = 0
KES1 170059Z 09007KT 27/16 A2991 RMK A01 T02700155  RH  049%=      5-min Rain = 0
KES1 170100Z 10007KT 27/16 A2991 RMK A01 T02690155  RH  050%=      5-min Rain = 0
KES1 170101Z 09008KT 27/16 A2991 RMK A01 T02680155  RH  050%=      5-min Rain = 0
KES1 170102Z 09008KT 27/15 A2991 RMK A01 T02680153  RH  049%=      5-min Rain = 0
KES1 170103Z 10008KT 27/15 A2991 RMK A01 T02680154  RH  050%=      5-min Rain = 0
KES1 170104Z 10007KT 27/16 A2991 RMK A01 T02680155  RH  050%=      5-min Rain = 0
KES1 170105Z 10007KT 27/16 A2991 RMK A01 T02670155  RH  050%=      5-min Rain = 0
KES1 170106Z 10007KT 27/16 A2991 RMK A01 T02660155  RH  050%=      5-min Rain = 0
KES1 170107Z 10006KT 27/16 A2991 RMK A01 T02660155  RH  051%=      5-min Rain = 0
KES1 170108Z 10006KT 27/16 A2991 RMK A01 T02650155  RH  051%=      5-min Rain = 0
KES1 170109Z 10007KT 27/16 A2991 RMK A01 T02650157  RH  052%=      5-min Rain = 0
KES1 170110Z 10007KT 26/16 A2991 RMK A01 T02630157  RH  052%=      5-min Rain = 0
KES1 170111Z 10007KT 26/16 A2991 RMK A01 T02630157  RH  052%=      5-min Rain = 0
KES1 170112Z 10007KT 26/16 A2991 RMK A01 T02620157  RH  052%=      5-min Rain = 0
KES1 170113Z 10006KT 26/16 A2991 RMK A01 T02620158  RH  053%=      5-min Rain = 0
KES1 170114Z 10006KT 26/16 A2991 RMK A01 T02620158  RH  053%=      5-min Rain = 0
KES1 170115Z 10006KT 26/16 A2991 RMK A01 T02610159  RH  053%=      5-min Rain = 0
KES1 170116Z 10006KT 26/16 A2991 RMK A01 T02600159  RH  054%=      5-min Rain = 0
KES1 170117Z 10006KT 26/16 A2991 RMK A01 T02600159  RH  054%=      5-min Rain = 0
KES1 170118Z 10007KT 26/16 A2991 RMK A01 T02590159  RH  054%=      5-min Rain = 0
KES1 170119Z 10007KT 26/16 A2991 RMK A01 T02590160  RH  055%=      5-min Rain = 0
KES1 170120Z 10007KT 26/16 A2991 RMK A01 T02580161  RH  055%=      5-min Rain = 0
KES1 170121Z 10007KT 26/16 A2991 RMK A01 T02570162  RH  056%=      5-min Rain = 0
KES1 170122Z 10007KT 26/16 A2991 RMK A01 T02560161  RH  055%=      5-min Rain = 0
KES1 170123Z 11007KT 26/16 A2991 RMK A01 T02570159  RH  055%=      5-min Rain = 0
KES1 170124Z 10008KT 26/16 A2991 RMK A01 T02570159  RH  055%=      5-min Rain = 0
KES1 170125Z 10007KT 26/16 A2991 RMK A01 T02570160  RH  055%=      5-min Rain = 0
KES1 170126Z 11007KT 26/16 A2991 RMK A01 T02570160  RH  055%=      5-min Rain = 0
KES1 170127Z 10007KT 26/16 A2991 RMK A01 T02560160  RH  055%=      5-min Rain = 0
KES1 170128Z 10007KT 26/16 A2991 RMK A01 T02550161  RH  056%=      5-min Rain = 0
KES1 170129Z 11007KT 25/16 A2991 RMK A01 T02540159  RH  056%=      5-min Rain = 0
KES1 170130Z 11008KT 25/16 A2991 RMK A01 T02540160  RH  056%=      5-min Rain = 0
KES1 170131Z 11007KT 25/16 A2991 RMK A01 T02540160  RH  056%=      5-min Rain = 0
KES1 170132Z 11007KT 25/16 A2991 RMK A01 T02540160  RH  056%=      5-min Rain = 0
KES1 170133Z 11007KT 25/16 A2991 RMK A01 T02530160  RH  056%=      5-min Rain = 0
KES1 170134Z 10007KT 25/16 A2991 RMK A01 T02520159  RH  056%=      5-min Rain = 0
KES1 170135Z 11008KT 25/16 A2991 RMK A01 T02520159  RH  056%=      5-min Rain = 0
KES1 170136Z 11007KT 25/16 A2991 RMK A01 T02520159  RH  056%=      5-min Rain = 0
KES1 170137Z 11007KT 25/16 A2991 RMK A01 T02520159  RH  056%=      5-min Rain = 0
KES1 170138Z 10007KT 25/16 A2991 RMK A01 T02520159  RH  056%=      5-min Rain = 0
KES1 170139Z 10007KT 25/16 A2991 RMK A01 T02510158  RH  056%=      5-min Rain = 0
KES1 170140Z 10008KT 25/16 A2991 RMK A01 T02500159  RH  057%=      5-min Rain = 0
KES1 170141Z 11008KT 25/16 A2991 RMK A01 T02500157  RH  056%=      5-min Rain = 0
KES1 170142Z 11008KT 25/16 A2991 RMK A01 T02500157  RH  056%=      5-min Rain = 0
KES1 170143Z 11007KT 25/16 A2991 RMK A01 T02500158  RH  057%=      5-min Rain = 0
KES1 170144Z 11007KT 25/16 A2991 RMK A01 T02490157  RH  057%=      5-min Rain = 0
KES1 170145Z 11007KT 25/16 A2991 RMK A01 T02480158  RH  057%=      5-min Rain = 0
KES1 170146Z 11007KT 25/16 A2991 RMK A01 T02480157  RH  057%=      5-min Rain = 0
KES1 170147Z 11007KT 25/16 A2991 RMK A01 T02480157  RH  057%=      5-min Rain = 0
KES1 170148Z 11008KT 25/16 A2991 RMK A01 T02470157  RH  057%=      5-min Rain = 0
KES1 170149Z 11008KT 25/16 A2991 RMK A01 T02470156  RH  057%=      5-min Rain = 0
KES1 170150Z 11007KT 25/16 A2991 RMK A01 T02470156  RH  057%=      5-min Rain = 0
KES1 170151Z 11007KT 25/16 A2991 RMK A01 T02470155  RH  056%=      5-min Rain = 0
KES1 170152Z 11007KT 25/16 A2991 RMK A01 T02470156  RH  057%=      5-min Rain = 0
KES1 170153Z 11008KT 25/16 A2991 RMK A01 T02470155  RH  057%=      5-min Rain = 0
KES1 170154Z 11007KT 25/16 A2991 RMK A01 T02470155  RH  057%=      5-min Rain = 0
KES1 170155Z 11007KT 25/16 A2991 RMK A01 T02460155  RH  057%=      5-min Rain = 0
KES1 170156Z 11007KT 25/15 A2991 RMK A01 T02460154  RH  057%=      5-min Rain = 0
KES1 170157Z 11007KT 25/16 A2991 RMK A01 T02450156  RH  057%=      5-min Rain = 0
KES1 170158Z 11008KT 24/15 A2992 RMK A01 T02440154  RH  057%=      5-min Rain = 0
KES1 170159Z 10008KT 25/15 A2992 RMK A01 T02450154  RH  057%=      5-min Rain = 0
KES1 170200Z 11007KT 24/15 A2992 RMK A01 T02440154  RH  057%=      5-min Rain = 0
KES1 170201Z 10008KT 24/15 A2992 RMK A01 T02440154  RH  057%=      5-min Rain = 0
KES1 170202Z 10008KT 24/15 A2992 RMK A01 T02440153  RH  057%=      5-min Rain = 0
KES1 170203Z 10007KT 24/15 A2992 RMK A01 T02440152  RH  056%=      5-min Rain = 0
KES1 170204Z 10007KT 24/15 A2992 RMK A01 T02440152  RH  056%=      5-min Rain = 0
KES1 170205Z 10007KT 24/15 A2992 RMK A01 T02440152  RH  057%=      5-min Rain = 0
KES1 170206Z 11007KT 24/15 A2992 RMK A01 T02440151  RH  056%=      5-min Rain = 0
KES1 170207Z 10007KT 24/15 A2992 RMK A01 T02440152  RH  056%=      5-min Rain = 0
KES1 170208Z 10008KT 24/15 A2992 RMK A01 T02430151  RH  057%=      5-min Rain = 0
KES1 170209Z 10007KT 24/15 A2992 RMK A01 T02430151  RH  057%=      5-min Rain = 0
KES1 170210Z 10008KT 24/15 A2992 RMK A01 T02420150  RH  057%=      5-min Rain = 0
KES1 170211Z 11008KT 24/15 A2992 RMK A01 T02420150  RH  056%=      5-min Rain = 0
KES1 170212Z 10007KT 24/15 A2992 RMK A01 T02420149  RH  056%=      5-min Rain = 0
KES1 170213Z 11008KT 24/15 A2992 RMK A01 T02430148  RH  056%=      5-min Rain = 0
KES1 170214Z 11007KT 24/15 A2992 RMK A01 T02430149  RH  056%=      5-min Rain = 0
KES1 170215Z 11007KT 24/15 A2992 RMK A01 T02430149  RH  056%=      5-min Rain = 0
KES1 170216Z 11009KT 24/15 A2992 RMK A01 T02430148  RH  056%=      5-min Rain = 0
KES1 170217Z 11008KT 24/15 A2992 RMK A01 T02430149  RH  056%=      5-min Rain = 0
KES1 170218Z 11008KT 24/15 A2992 RMK A01 T02420150  RH  056%=      5-min Rain = 0
KES1 170219Z 10008KT 24/15 A2992 RMK A01 T02420149  RH  056%=      5-min Rain = 0
KES1 170220Z 11008KT 24/15 A2992 RMK A01 T02420150  RH  056%=      5-min Rain = 0
KES1 170221Z 10008KT 24/15 A2992 RMK A01 T02420151  RH  057%=      5-min Rain = 0
KES1 170222Z 10009KT 24/15 A2992 RMK A01 T02420152  RH  057%=      5-min Rain = 0
KES1 170223Z 10008KT 24/15 A2993 RMK A01 T02420152  RH  057%=      5-min Rain = 0
KES1 170224Z 10009KT 24/15 A2993 RMK A01 T02420153  RH  058%=      5-min Rain = 0
KES1 170225Z 10009KT 24/15 A2993 RMK A01 T02410152  RH  058%=      5-min Rain = 0
KES1 170226Z 10007KT 24/15 A2993 RMK A01 T02410152  RH  058%=      5-min Rain = 0
KES1 170227Z 10008KT 24/15 A2993 RMK A01 T02410154  RH  058%=      5-min Rain = 0
KES1 170228Z 10008KT 24/15 A2993 RMK A01 T02410154  RH  058%=      5-min Rain = 0
KES1 170229Z 10008KT 24/15 A2993 RMK A01 T02400154  RH  059%=      5-min Rain = 0
KES1 170230Z 10010KT 24/15 A2993 RMK A01 T02400154  RH  059%=      5-min Rain = 0
KES1 170231Z 10009KT 24/15 A2993 RMK A01 T02400154  RH  059%=      5-min Rain = 0
KES1 170232Z 10008KT 24/16 A2993 RMK A01 T02410155  RH  059%=      5-min Rain = 0
KES1 170233Z 10009KT 24/16 A2993 RMK A01 T02400155  RH  059%=      5-min Rain = 0
KES1 170234Z 10008KT 24/16 A2993 RMK A01 T02390156  RH  060%=      5-min Rain = 0
KES1 170235Z 10009KT 24/16 A2993 RMK A01 T02380156  RH  060%=      5-min Rain = 0
KES1 170236Z 10008KT 24/16 A2993 RMK A01 T02380156  RH  060%=      5-min Rain = 0
KES1 170237Z 10008KT 24/16 A2993 RMK A01 T02380156  RH  060%=      5-min Rain = 0
KES1 170238Z 10009KT 24/16 A2993 RMK A01 T02390157  RH  060%=      5-min Rain = 0
KES1 170239Z 11008KT 24/16 A2993 RMK A01 T02390157  RH  060%=      5-min Rain = 0
KES1 170240Z 11008KT 24/16 A2993 RMK A01 T02380157  RH  061%=      5-min Rain = 0
KES1 170241Z 11007KT 24/16 A2993 RMK A01 T02380158  RH  061%=      5-min Rain = 0
KES1 170242Z 11007KT 24/16 A2993 RMK A01 T02380158  RH  061%=      5-min Rain = 0
KES1 170243Z 11007KT 24/16 A2993 RMK A01 T02370158  RH  061%=      5-min Rain = 0
KES1 170244Z 11008KT 24/16 A2993 RMK A01 T02370158  RH  061%=      5-min Rain = 0
KES1 170245Z 12008KT 24/16 A2993 RMK A01 T02370158  RH  061%=      5-min Rain = 0
KES1 170246Z 11006KT 24/16 A2993 RMK A01 T02370157  RH  061%=      5-min Rain = 0
KES1 170247Z 11007KT 24/16 A2993 RMK A01 T02370158  RH  061%=      5-min Rain = 0
KES1 170248Z 11006KT 24/16 A2993 RMK A01 T02360159  RH  062%=      5-min Rain = 0
KES1 170249Z 11006KT 24/16 A2993 RMK A01 T02350159  RH  062%=      5-min Rain = 0
KES1 170250Z 12007KT 23/16 A2993 RMK A01 T02340159  RH  062%=      5-min Rain = 0
KES1 170251Z 12007KT 23/16 A2993 RMK A01 T02340159  RH  063%=      5-min Rain = 0
KES1 170252Z 12006KT 23/16 A2993 RMK A01 T02340159  RH  063%=      5-min Rain = 0
KES1 170253Z 12006KT 23/16 A2993 RMK A01 T02340159  RH  063%=      5-min Rain = 0
KES1 170254Z 12007KT 23/16 A2993 RMK A01 T02330159  RH  063%=      5-min Rain = 0
KES1 170255Z 12007KT 23/16 A2993 RMK A01 T02330159  RH  063%=      5-min Rain = 0
KES1 170256Z 12006KT 23/16 A2993 RMK A01 T02340159  RH  063%=      5-min Rain = 0
KES1 170257Z 11007KT 23/16 A2993 RMK A01 T02340159  RH  063%=      5-min Rain = 0
KES1 170258Z 11008KT 23/16 A2993 RMK A01 T02340158  RH  062%=      5-min Rain = 0
KES1 170259Z 11007KT 24/16 A2993 RMK A01 T02350159  RH  062%=      5-min Rain = 0
KES1 170300Z 11008KT 24/16 A2993 RMK A01 T02350160  RH  063%=      5-min Rain = 0
KES1 170301Z 11007KT 24/16 A2993 RMK A01 T02350160  RH  063%=      5-min Rain = 0
KES1 170302Z 11009KT 24/16 A2993 RMK A01 T02350160  RH  063%=      5-min Rain = 0
KES1 170303Z 11010KT 24/16 A2993 RMK A01 T02350158  RH  062%=      5-min Rain = 0
KES1 170304Z 11008KT 24/16 A2993 RMK A01 T02370159  RH  062%=      5-min Rain = 0
KES1 170305Z 11010KT 24/16 A2993 RMK A01 T02360158  RH  061%=      5-min Rain = 0
KES1 170306Z 11009KT 24/16 A2993 RMK A01 T02370158  RH  061%=      5-min Rain = 0
KES1 170307Z 12009KT 24/16 A2993 RMK A01 T02370159  RH  061%=      5-min Rain = 0
KES1 170308Z 12008KT 24/16 A2993 RMK A01 T02370159  RH  062%=      5-min Rain = 0
KES1 170309Z 12007KT 24/16 A2993 RMK A01 T02360159  RH  062%=      5-min Rain = 0
KES1 170310Z 12008KT 24/16 A2993 RMK A01 T02360159  RH  062%=      5-min Rain = 0
KES1 170311Z 13009KT 24/16 A2993 RMK A01 T02360158  RH  062%=      5-min Rain = 0
KES1 170312Z 13009KT 24/16 A2993 RMK A01 T02360158  RH  062%=      5-min Rain = 0
KES1 170313Z 13009KT 24/16 A2993 RMK A01 T02360159  RH  062%=      5-min Rain = 0
KES1 170314Z 13010KT 24/16 A2993 RMK A01 T02360159  RH  062%=      5-min Rain = 0
KES1 170315Z 12010KT 24/16 A2993 RMK A01 T02360158  RH  061%=      5-min Rain = 0
KES1 170316Z 13009KT 24/16 A2993 RMK A01 T02370159  RH  062%=      5-min Rain = 0
KES1 170317Z 13010KT 24/16 A2993 RMK A01 T02360159  RH  062%=      5-min Rain = 0
KES1 170318Z 13010KT 24/16 A2993 RMK A01 T02350158  RH  062%=      5-min Rain = 0
KES1 170319Z 13011KT 24/16 A2993 RMK A01 T02350159  RH  062%=      5-min Rain = 0
KES1 170320Z 13010KT 24/16 A2993 RMK A01 T02350159  RH  062%=      5-min Rain = 0
KES1 170321Z 13009KT 24/16 A2993 RMK A01 T02350159  RH  062%=      5-min Rain = 0
KES1 170322Z 13010KT 24/16 A2993 RMK A01 T02350160  RH  063%=      5-min Rain = 0
KES1 170323Z 13008KT 23/16 A2993 RMK A01 T02340159  RH  063%=      5-min Rain = 0
KES1 170324Z 13009KT 23/16 A2993 RMK A01 T02340160  RH  063%=      5-min Rain = 0
KES1 170325Z 13009KT 23/16 A2993 RMK A01 T02330160  RH  064%=      5-min Rain = 0
KES1 170326Z 13009KT 23/16 A2993 RMK A01 T02320160  RH  064%=      5-min Rain = 0
KES1 170327Z 13009KT 23/16 A2993 RMK A01 T02320160  RH  064%=      5-min Rain = 0
KES1 170328Z 13009KT 23/16 A2993 RMK A01 T02320160  RH  064%=      5-min Rain = 0
KES1 170329Z 13011KT 23/16 A2993 RMK A01 T02320160  RH  064%=      5-min Rain = 0
KES1 170330Z 14010KT 23/16 A2993 RMK A01 T02320160  RH  064%=      5-min Rain = 0
KES1 170331Z 13010KT 23/16 A2993 RMK A01 T02320160  RH  064%=      5-min Rain = 0
KES1 170332Z 14009KT 23/16 A2993 RMK A01 T02330161  RH  064%=      5-min Rain = 0
KES1 170333Z 14010KT 23/16 A2993 RMK A01 T02320161  RH  064%=      5-min Rain = 0
KES1 170334Z 14010KT 23/16 A2993 RMK A01 T02320160  RH  064%=      5-min Rain = 0
KES1 170335Z 14010KT 23/16 A2993 RMK A01 T02330161  RH  064%=      5-min Rain = 0
KES1 170336Z 14010KT 23/16 A2993 RMK A01 T02320160  RH  064%=      5-min Rain = 0
KES1 170337Z 14010KT 23/16 A2993 RMK A01 T02330161  RH  064%=      5-min Rain = 0
KES1 170338Z 14009KT 23/16 A2993 RMK A01 T02330161  RH  064%=      5-min Rain = 0
KES1 170339Z 14009KT 23/16 A2993 RMK A01 T02320161  RH  064%=      5-min Rain = 0
KES1 170340Z 14009KT 23/16 A2993 RMK A01 T02320161  RH  064%=      5-min Rain = 0
KES1 170341Z 14009KT 23/16 A2993 RMK A01 T02320161  RH  064%=      5-min Rain = 0
KES1 170342Z 14009KT 23/16 A2993 RMK A01 T02310161  RH  065%=      5-min Rain = 0
KES1 170343Z 14010KT 23/16 A2993 RMK A01 T02310161  RH  065%=      5-min Rain = 0
KES1 170344Z 14009KT 23/16 A2993 RMK A01 T02310161  RH  065%=      5-min Rain = 0
KES1 170345Z 14012KT 23/16 A2993 RMK A01 T02310160  RH  064%=      5-min Rain = 0
KES1 170346Z 14010KT 23/16 A2993 RMK A01 T02320160  RH  064%=      5-min Rain = 0
KES1 170347Z 13009KT 23/16 A2993 RMK A01 T02320160  RH  064%=      5-min Rain = 0
KES1 170348Z 13010KT 23/16 A2993 RMK A01 T02320160  RH  064%=      5-min Rain = 0
KES1 170349Z 14010KT 23/16 A2993 RMK A01 T02320160  RH  064%=      5-min Rain = 0
KES1 170350Z 13010KT 23/16 A2993 RMK A01 T02320160  RH  064%=      5-min Rain = 0
KES1 170351Z 14009KT 23/16 A2993 RMK A01 T02320160  RH  064%=      5-min Rain = 0
KES1 170352Z 14009KT 23/16 A2993 RMK A01 T02320161  RH  064%=      5-min Rain = 0
KES1 170353Z 14010KT 23/16 A2993 RMK A01 T02310161  RH  064%=      5-min Rain = 0
KES1 170354Z 14009KT 23/16 A2993 RMK A01 T02310160  RH  064%=      5-min Rain = 0
KES1 170355Z 14010KT 23/16 A2993 RMK A01 T02310160  RH  064%=      5-min Rain = 0
KES1 170356Z 15008KT 23/16 A2993 RMK A01 T02310161  RH  064%=      5-min Rain = 0
KES1 170357Z 15008KT 23/16 A2993 RMK A01 T02300161  RH  065%=      5-min Rain = 0
KES1 170358Z 15010KT 23/16 A2993 RMK A01 T02300161  RH  065%=      5-min Rain = 0
KES1 170359Z 15009KT 23/16 A2993 RMK A01 T02290161  RH  066%=      5-min Rain = 0
KES1 170400Z 14009KT 23/16 A2993 RMK A01 T02280161  RH  066%=      5-min Rain = 0
KES1 170401Z 14009KT 23/16 A2993 RMK A01 T02280162  RH  066%=      5-min Rain = 0
KES1 170402Z 15009KT 23/16 A2993 RMK A01 T02270162  RH  067%=      5-min Rain = 0
KES1 170403Z 15010KT 23/16 A2993 RMK A01 T02260162  RH  067%=      5-min Rain = 0
KES1 170404Z 15009KT 23/16 A2993 RMK A01 T02260161  RH  067%=      5-min Rain = 0
KES1 170405Z 14009KT 23/16 A2993 RMK A01 T02260161  RH  067%=      5-min Rain = 0
KES1 170406Z 14010KT 23/16 A2993 RMK A01 T02260161  RH  067%=      5-min Rain = 0
KES1 170407Z 14010KT 23/16 A2993 RMK A01 T02260161  RH  067%=      5-min Rain = 0
KES1 170408Z 14009KT 23/16 A2993 RMK A01 T02260162  RH  067%=      5-min Rain = 0
KES1 170409Z 14010KT 23/16 A2993 RMK A01 T02250161  RH  067%=      5-min Rain = 0
KES1 170410Z 14010KT 23/16 A2993 RMK A01 T02250161  RH  067%=      5-min Rain = 0
KES1 170411Z 14012KT 23/16 A2993 RMK A01 T02250161  RH  067%=      5-min Rain = 0
KES1 170412Z 14009KT 23/16 A2993 RMK A01 T02250161  RH  067%=      5-min Rain = 0
KES1 170413Z 14010KT 23/16 A2993 RMK A01 T02260161  RH  067%=      5-min Rain = 0
KES1 170414Z 14009KT 23/16 A2993 RMK A01 T02250161  RH  067%=      5-min Rain = 0
KES1 170415Z 14009KT 23/16 A2993 RMK A01 T02250161  RH  067%=      5-min Rain = 0
KES1 170416Z 13009KT 23/16 A2993 RMK A01 T02250161  RH  067%=      5-min Rain = 0
KES1 170417Z 13010KT 23/16 A2993 RMK A01 T02250161  RH  067%=      5-min Rain = 0
KES1 170418Z 13010KT 23/16 A2993 RMK A01 T02250160  RH  067%=      5-min Rain = 0
KES1 170419Z 14009KT 23/16 A2993 RMK A01 T02250160  RH  067%=      5-min Rain = 0
KES1 170420Z 13009KT 23/16 A2993 RMK A01 T02250161  RH  067%=      5-min Rain = 0
KES1 170421Z 13009KT 22/16 A2993 RMK A01 T02240161  RH  067%=      5-min Rain = 0
KES1 170422Z 13009KT 22/16 A2993 RMK A01 T02240161  RH  067%=      5-min Rain = 0
KES1 170423Z 14009KT 22/16 A2993 RMK A01 T02240160  RH  067%=      5-min Rain = 0
KES1 170424Z 14009KT 22/16 A2993 RMK A01 T02240161  RH  067%=      5-min Rain = 0
KES1 170425Z 13009KT 22/16 A2993 RMK A01 T02240161  RH  067%=      5-min Rain = 0
KES1 170426Z 14009KT 22/16 A2993 RMK A01 T02230160  RH  067%=      5-min Rain = 0
KES1 170427Z 14009KT 22/16 A2993 RMK A01 T02230160  RH  067%=      5-min Rain = 0
KES1 170428Z 14009KT 22/16 A2993 RMK A01 T02240160  RH  067%=      5-min Rain = 0
KES1 170429Z 14008KT 22/16 A2993 RMK A01 T02230160  RH  067%=      5-min Rain = 0
KES1 170430Z 14010KT 22/16 A2993 RMK A01 T02230160  RH  068%=      5-min Rain = 0
KES1 170431Z 13009KT 22/16 A2993 RMK A01 T02230160  RH  067%=      5-min Rain = 0
KES1 170432Z 14009KT 22/16 A2993 RMK A01 T02230160  RH  067%=      5-min Rain = 0
KES1 170433Z 14008KT 22/16 A2993 RMK A01 T02230160  RH  068%=      5-min Rain = 0
KES1 170434Z 14009KT 22/16 A2993 RMK A01 T02230161  RH  068%=      5-min Rain = 0
KES1 170435Z 14008KT 22/16 A2993 RMK A01 T02220160  RH  068%=      5-min Rain = 0
KES1 170436Z 14010KT 22/16 A2993 RMK A01 T02220161  RH  068%=      5-min Rain = 0
KES1 170437Z 14009KT 22/16 A2993 RMK A01 T02220160  RH  068%=      5-min Rain = 0
KES1 170438Z 14009KT 22/16 A2993 RMK A01 T02210160  RH  068%=      5-min Rain = 0
KES1 170439Z 14009KT 22/16 A2993 RMK A01 T02210161  RH  069%=      5-min Rain = 0
KES1 170440Z 14010KT 22/16 A2993 RMK A01 T02200160  RH  069%=      5-min Rain = 0
KES1 170441Z 14011KT 22/16 A2993 RMK A01 T02210160  RH  068%=      5-min Rain = 0
KES1 170442Z 14007KT 22/16 A2993 RMK A01 T02210160  RH  068%=      5-min Rain = 0
KES1 170443Z 14008KT 22/16 A2993 RMK A01 T02210160  RH  068%=      5-min Rain = 0
KES1 170444Z 14007KT 22/16 A2993 RMK A01 T02200160  RH  069%=      5-min Rain = 0
KES1 170445Z 15007KT 22/16 A2993 RMK A01 T02190160  RH  069%=      5-min Rain = 0
KES1 170446Z 15009KT 22/16 A2993 RMK A01 T02190160  RH  069%=      5-min Rain = 0
KES1 170447Z 15009KT 22/16 A2993 RMK A01 T02190160  RH  069%=      5-min Rain = 0
KES1 170448Z 15009KT 22/16 A2993 RMK A01 T02190160  RH  069%=      5-min Rain = 0
KES1 170449Z 15009KT 22/16 A2993 RMK A01 T02190159  RH  069%=      5-min Rain = 0
KES1 170450Z 16008KT 22/16 A2993 RMK A01 T02190159  RH  069%=      5-min Rain = 0
KES1 170451Z 17009KT 22/16 A2993 RMK A01 T02190159  RH  068%=      5-min Rain = 0
KES1 170452Z 16009KT 22/16 A2993 RMK A01 T02200158  RH  068%=      5-min Rain = 0
KES1 170453Z 17007KT 22/16 A2993 RMK A01 T02200159  RH  068%=      5-min Rain = 0
KES1 170454Z 16009KT 22/16 A2993 RMK A01 T02190159  RH  068%=      5-min Rain = 0
KES1 170455Z 17008KT 22/16 A2993 RMK A01 T02180159  RH  069%=      5-min Rain = 0
KES1 170456Z 16009KT 22/16 A2993 RMK A01 T02170158  RH  069%=      5-min Rain = 0
KES1 170457Z 16009KT 22/16 A2993 RMK A01 T02170157  RH  069%=      5-min Rain = 0
KES1 170458Z 16008KT 22/16 A2993 RMK A01 T02180157  RH  068%=      5-min Rain = 0
KES1 170459Z 17007KT 22/16 A2993 RMK A01 T02180157  RH  068%=      5-min Rain = 0

Page generated in 0.1424 seconds.